Flight Track Log - Related Links

Times and Time Zones

All times are in EST time to prevent confusion due to time zone crossing. See the SIA21 flight status page for this flight to view local times or setup timezone preferences in your user account.

Time Position Orientation Groundspeed Altitude Reporting Facility
EST Latitude Longitude Course Direction KTS MPH feet Rate Location/Type
Thu 23:17:31 40.6641 -74.1861 North 172 198 600  Level FlightAware ADS-B
Thu 23:17:42 40.6553 -74.1882 190° South 175 201 1,000 2,077 Climbing FlightAware ADS-B
Thu 23:17:57 40.6438 -74.1894 185° South 171 197 1,500 1,800 Climbing FlightAware ADS-B
Thu 23:18:02 40.6395 -74.1909 195° South 171 197 1,600 1,440 Climbing FlightAware ADS-B
Thu 23:18:22 40.6246 -74.1970 197° South 168 193 2,100 1,167 Climbing FlightAware ADS-B
Thu 23:18:38 40.6132 -74.2018 198° South 170 196 2,300 947 Climbing FlightAware ADS-B
Thu 23:19:00 40.5964 -74.2090 198° South 173 199 2,700 857 Climbing FlightAware ADS-B
Thu 23:19:06 40.5917 -74.2126 210° Southwest 172 198 2,700 545 Level FlightAware ADS-B
Thu 23:19:11 40.5889 -74.2162 224° Southwest 171 197 2,800 333 Climbing FlightAware ADS-B
Thu 23:19:24 40.5850 -74.2284 247° West 175 201 2,800 316 Level FlightAware ADS-B
Thu 23:19:30 40.5853 -74.2346 274° West 176 203 2,900 545 Climbing FlightAware ADS-B
Thu 23:19:35 40.5865 -74.2398 287° West 184 212 2,900 750 Level FlightAware ADS-B
Thu 23:19:38 40.5877 -74.2428 298° West 186 214 3,000 960 Climbing FlightAware ADS-B
Thu 23:20:00 40.6020 -74.2606 317° Northwest 200 230 3,300 973 Climbing FlightAware ADS-B
Thu 23:20:15 40.6161 -74.2658 344° North 202 232 3,600 1,200 Climbing FlightAware ADS-B
Thu 23:20:20 40.6208 -74.2651 North 222 255 3,700 1,200 Climbing FlightAware ADS-B
Thu 23:20:30 40.6307 -74.2601 21° North 231 266 3,900 667 Climbing FlightAware ADS-B
Thu 23:20:47 40.6467 -74.2483 29° Northeast 240 276 4,000 600 Climbing FlightAware ADS-B
Thu 23:21:10 40.6705 -74.2296 31° Northeast 252 290 4,300 955 Climbing FlightAware ADS-B
Thu 23:21:31 40.6938 -74.2121 30° Northeast 271 312 4,700 1,067 Climbing FlightAware ADS-B
Thu 23:21:55 40.7197 -74.1888 34° Northeast 281 323 5,100 1,071 Climbing FlightAware ADS-B
Thu 23:21:59 40.7237 -74.1833 46° Northeast 293 337 5,200 1,364 Climbing FlightAware ADS-B
Thu 23:22:17 40.7394 -74.1594 49° Northeast 305 351 5,600 1,500 Climbing FlightAware ADS-B
Thu 23:22:31 40.7522 -74.1389 50° Northeast 309 356 6,000 1,737 Climbing FlightAware ADS-B
Thu 23:22:55 40.7737 -74.1035 51° Northeast 313 360 6,700 1,846 Climbing FlightAware ADS-B
Thu 23:23:10 40.7876 -74.0803 52° Northeast 315 362 7,200 1,935 Climbing FlightAware ADS-B
Thu 23:23:26 40.8021 -74.0570 51° Northeast 318 366 7,700 1,742 Climbing FlightAware ADS-B
Thu 23:23:41 40.8166 -74.0338 50° Northeast 322 371 8,100 1,600 Climbing FlightAware ADS-B
Thu 23:23:56 40.8314 -74.0103 50° Northeast 327 376 8,500 1,714 Climbing FlightAware ADS-B
Thu 23:24:16 40.8503 -73.9805 50° Northeast 329 379 9,100 1,714 Climbing FlightAware ADS-B
Thu 23:24:31 40.8653 -73.9567 50° Northeast 331 381 9,500 1,000 Climbing FlightAware ADS-B
Thu 23:24:52 40.8866 -73.9235 50° Northeast 342 394 9,700 833 Climbing FlightAware ADS-B
Thu 23:25:07 40.9022 -73.8994 49° Northeast 356 410 10,000 822 Climbing FlightAware ADS-B (KSNC)
Thu 23:26:05 40.9685 -73.7975 49° Northeast 396 456 10,700 964 Climbing FlightAware ADS-B (KSNC)
Thu 23:26:59 41.0300 -73.7000 50° Northeast 411 473 11,800 1,405 Climbing FlightAware ADS-B
Thu 23:27:56 41.1040 -73.5820 50° Northeast 425 489 13,300 1,500 Climbing FlightAware ADS-B (KSNC)
Thu 23:28:31 41.1471 -73.5137 50° Northeast 431 496 14,100 1,518 Climbing FlightAware ADS-B (KSNC)
Thu 23:29:19 41.2083 -73.4159 50° Northeast 434 499 15,400 1,615 Climbing FlightAware ADS-B (KSNC)
Thu 23:29:49 41.2472 -73.3536 50° Northeast 433 498 16,200 1,397 Climbing FlightAware ADS-B (KSNC)
Thu 23:30:32 41.3023 -73.2654 50° Northeast 440 506 17,100 1,233 Climbing FlightAware ADS-B (KSNC)
Thu 23:31:02 41.3419 -73.2018 50° Northeast 445 512 17,700 1,100 Climbing FlightAware ADS-B (KSNC)
Thu 23:31:32 41.3804 -73.1387 51° Northeast 453 521 18,200 1,164 Climbing FlightAware ADS-B (KSNC)
Thu 23:32:09 41.4200 -73.0517 59° Northeast 461 531 19,000 1,213 Climbing FlightAware ADS-B (KSNC)
Thu 23:33:01 41.4770 -72.9229 59° Northeast 466 536 20,000 1,068 Climbing FlightAware ADS-B (KSNC)
Thu 23:33:22 41.5081 -72.8775 47° Northeast 461 531 20,300 1,053 Climbing FlightAware ADS-B (KSNC)
Thu 23:33:58 41.5703 -72.8167 36° Northeast 462 532 21,000 1,091 Climbing FlightAware ADS-B (KSNC)
Thu 23:34:28 41.6224 -72.7674 35° Northeast 466 536 21,500 984 Climbing FlightAware ADS-B (KSNC)
Thu 23:34:59 41.6779 -72.7146 35° Northeast 471 542 22,000 938 Climbing FlightAware ADS-B (KSNC)
Thu 23:35:32 41.7343 -72.6613 35° Northeast 474 545 22,500 1,048 Climbing FlightAware ADS-B (KSNC)
Thu 23:36:02 41.7875 -72.6108 35° Northeast 476 548 23,100 984 Climbing FlightAware ADS-B (KSNC)
Thu 23:36:33 41.8438 -72.5575 35° Northeast 481 554 23,500 787 Climbing FlightAware ADS-B (KSNC)
Thu 23:37:03 41.9007 -72.5039 35° Northeast 484 557 23,900 771 Climbing FlightAware ADS-B (KSNC)
Thu 23:37:43 41.9733 -72.4362 35° Northeast 491 565 24,400 857 Climbing FlightAware ADS-B (KSNC)
Thu 23:38:13 42.0296 -72.3843 34° Northeast 492 566 24,900 871 Climbing FlightAware ADS-B (KSNC)
Thu 23:38:45 42.0875 -72.3309 34° Northeast 495 570 25,300 667 Climbing FlightAware ADS-B
Thu 23:39:16 42.1506 -72.2726 34° Northeast 495 570 25,600 667 Climbing FlightAware ADS-B
Thu 23:39:48 42.2093 -72.2184 34° Northeast 505 581 26,000 677 Climbing FlightAware ADS-B
Thu 23:40:18 42.2178 -72.2106 34° Northeast 508 585 26,300 700 Climbing FlightAware ADS-B
Thu 23:40:48 42.3273 -72.1084 35° Northeast 512 589 26,700 787 Climbing FlightAware ADS-B
Thu 23:41:19 42.3829 -72.0566 35° Northeast 516 594 27,100 806 Climbing FlightAware ADS-B
Thu 23:41:55 42.4583 -71.9862 35° Northeast 512 589 27,600 882 Climbing FlightAware ADS-B
Thu 23:42:27 42.5230 -71.9255 35° Northeast 514 592 28,100 968 Climbing FlightAware ADS-B
Thu 23:42:57 42.5807 -71.8712 35° Northeast 513 590 28,600 1,048 Climbing FlightAware ADS-B
Thu 23:43:30 42.6462 -71.8093 35° Northeast 513 590 29,200 1,091 Climbing FlightAware ADS-B
Thu 23:43:41 42.6643 -71.7923 34° Northeast 519 597 29,400 1,116 Climbing FlightAware ADS-B (KSNC)
Thu 23:44:13 42.7310 -71.7289 35° Northeast 511 588 30,000 1,200 Climbing FlightAware ADS-B
Thu 23:44:46 42.7815 -71.6813 35° Northeast 514 592 30,700 938 Climbing FlightAware ADS-B
Thu 23:45:17 42.8565 -71.6101 35° Northeast 510 587 31,000 462 Climbing FlightAware ADS-B
Thu 23:45:25 42.8709 -71.5963 35° Northeast 519 597 31,000  Level FlightAware ADS-B
Thu 23:45:39 42.8988 -71.5696 35° Northeast 514 592 31,000  Level FlightAware ADS-B
Thu 23:46:10 42.9600 -71.5112 35° Northeast 526 605 31,000  Level FlightAware ADS-B
Thu 23:46:28 42.9958 -71.4770 35° Northeast 519 597 31,000  Level FlightAware ADS-B
Thu 23:46:37 43.0151 -71.4587 35° Northeast 518 596 31,000  Level FlightAware ADS-B
Thu 23:46:47 43.0348 -71.4397 35° Northeast 518 596 31,000  Level FlightAware ADS-B
Thu 23:46:57 43.0547 -71.4207 35° Northeast 517 595 31,000  Level FlightAware ADS-B
Thu 23:47:08 43.0767 -71.3994 35° Northeast 517 595 31,000  Level FlightAware ADS-B
Thu 23:47:17 43.0942 -71.3827 35° Northeast 522 601 31,000  Level FlightAware ADS-B
Thu 23:47:28 43.1161 -71.3614 35° Northeast 515 593 31,000  Level FlightAware ADS-B
Thu 23:47:38 43.1352 -71.3433 35° Northeast 514 592 31,000  Level FlightAware ADS-B
Thu 23:47:47 43.1525 -71.3266 35° Northeast 515 593 31,000  Level FlightAware ADS-B
Thu 23:47:58 43.1754 -71.3046 35° Northeast 517 595 31,000  Level FlightAware ADS-B
Thu 23:48:14 43.2085 -71.2725 35° Northeast 517 595 31,000  Level FlightAware ADS-B
Thu 23:48:28 43.2363 -71.2458 35° Northeast 519 597 31,000  Level FlightAware ADS-B
Thu 23:48:47 43.2739 -71.2093 35° Northeast 519 597 31,000  Level FlightAware ADS-B
Thu 23:48:58 43.2954 -71.1885 35° Northeast 519 597 31,000  Level FlightAware ADS-B
Thu 23:49:08 43.3144 -71.1700 35° Northeast 519 597 31,000  Level FlightAware ADS-B
Thu 23:49:28 43.3545 -71.1311 35° Northeast 519 597 31,000  Level FlightAware ADS-B
Thu 23:49:48 43.3941 -71.0927 35° Northeast 517 595 31,000  Level FlightAware ADS-B
Thu 23:50:23 43.4642 -71.0244 35° Northeast 515 593 31,000  Level FlightAware ADS-B
Thu 23:51:09 43.5533 -70.9373 35° Northeast 521 600 31,000  Level FlightAware ADS-B
Thu 23:51:48 43.6285 -70.8635 35° Northeast 523 602 31,000  Level FlightAware ADS-B
Thu 23:52:19 43.6906 -70.8024 35° Northeast 521 600 31,000  Level FlightAware ADS-B
Thu 23:52:58 43.7682 -70.7258 35° Northeast 522 601 31,000  Level FlightAware ADS-B
Thu 23:53:29 43.8279 -70.6669 35° Northeast 523 602 31,000  Level FlightAware ADS-B
Thu 23:54:08 43.9034 -70.5919 36° Northeast 524 603 31,000  Level FlightAware ADS-B
Thu 23:54:39 43.9655 -70.5302 36° Northeast 523 602 31,000  Level FlightAware ADS-B
Thu 23:55:18 44.0402 -70.4555 36° Northeast 523 602 31,000  Level FlightAware ADS-B
Thu 23:55:48 44.1011 -70.3946 36° Northeast 523 602 31,000  Level FlightAware ADS-B
Thu 23:56:18 44.1582 -70.3373 36° Northeast 521 600 31,000  Level FlightAware ADS-B
Thu 23:56:51 44.2179 -70.2773 36° Northeast 522 601 31,000  Level FlightAware ADS-B (EGHI / SOU)
Thu 23:57:30 44.2793 -70.2154 36° Northeast 524 603 31,000  Level FlightAware ADS-B (EGHI / SOU)
Thu 23:58:25 44.4070 -70.0860 36° Northeast 521 600 31,000  Level FlightAware ADS-B
Thu 23:59:19 44.5146 -69.9767 36° Northeast 522 601 31,000  Level FlightAware ADS-B (EGHI / SOU)
Fri 00:00:03 44.5901 -69.8995 36° Northeast 521 600 31,000  Level FlightAware ADS-B
Fri 00:00:58 44.7052 -69.7814 36° Northeast 521 600 31,000  Level FlightAware ADS-B
Fri 00:01:29 44.7660 -69.7188 36° Northeast 519 597 31,000  Level FlightAware ADS-B
Fri 00:02:16 44.8581 -69.6238 36° Northeast 523 602 31,000  Level FlightAware ADS-B
Fri 00:02:56 44.9348 -69.5442 36° Northeast 524 603 31,000  Level FlightAware ADS-B
Fri 00:03:26 44.9945 -69.4822 36° Northeast 524 603 31,000  Level FlightAware ADS-B
Fri 00:03:59 45.0573 -69.4165 36° Northeast 526 605 31,000  Level FlightAware ADS-B (EHTW / ENS)
Fri 00:04:34 45.1086 -69.3630 36° Northeast 526 605 31,000  Level FlightAware ADS-B (EHTW / ENS)
Fri 00:05:05 45.1379 -69.3324 36° Northeast 527 606 31,000  Level FlightAware ADS-B (EGHI / SOU)
Fri 00:05:42 45.2570 -69.2070 37° Northeast 528 608 31,000  Level FlightAware ADS-B
Fri 00:06:26 45.3277 -69.1325 37° Northeast 528 608 31,000  Level FlightAware ADS-B
Fri 00:07:06 45.4165 -69.0383 37° Northeast 528 608 31,000  Level FlightAware ADS-B
Fri 00:07:38 45.4860 -68.9644 37° Northeast 528 608 31,000  Level FlightAware ADS-B
Fri 00:08:14 45.5200 -68.9282 37° Northeast 527 606 31,000  Level FlightAware ADS-B
Fri 00:08:49 45.6180 -68.8230 37° Northeast 527 606 31,000  Level FlightAware ADS-B
Fri 00:09:42 45.7262 -68.7073 37° Northeast 528 608 31,000  Level FlightAware ADS-B
Fri 00:10:40 45.8407 -68.5836 37° Northeast 529 609 31,000  Level FlightAware ADS-B
Fri 00:11:10 45.8989 -68.5206 37° Northeast 530 610 31,000  Level FlightAware ADS-B
Fri 00:11:55 45.9865 -68.4253 37° Northeast 532 612 31,000  Level FlightAware ADS-B
Fri 00:12:26 46.0464 -68.3599 37° Northeast 534 615 31,000  Level FlightAware ADS-B
Fri 00:13:12 46.1377 -68.2599 37° Northeast 532 612 31,000  Level FlightAware ADS-B
Fri 00:14:28 46.2370 -68.1530 37° Northeast 532 612 31,000  Level FlightAware ADS-B
Fri 00:14:52 46.2770 -68.1090 37° Northeast 532 612 31,000  Level FlightAware ADS-B
Fri 00:15:38 46.4200 -67.9480 38° Northeast 532 612 31,000  Level FlightAware ADS-B
Fri 00:16:24 46.5110 -67.8460 38° Northeast 533 613 31,000  Level FlightAware ADS-B
Fri 00:16:56 46.5740 -67.7760 37° Northeast 533 613 31,000  Level FlightAware ADS-B
Fri 00:17:28 46.6370 -67.7050 38° Northeast 532 612 31,000  Level FlightAware ADS-B
Fri 00:18:24 46.7450 -67.5830 38° Northeast 532 612 31,000  Level FlightAware ADS-B
Fri 00:19:01 46.8170 -67.5030 37° Northeast 532 612 31,000  Level FlightAware ADS-B
Fri 00:20:03 46.9380 -67.3650 38° Northeast 533 613 31,000  Level FlightAware ADS-B
Fri 00:20:49 47.0270 -67.2630 38° Northeast 536 617 31,000  Level FlightAware ADS-B
Fri 00:21:36 47.1190 -67.1570 38° Northeast 536 617 31,000  Level FlightAware ADS-B
Fri 00:22:00 47.1650 -67.1040 38° Northeast 536 617 31,000 316 Level FlightAware ADS-B
Fri 00:22:33 47.2300 -67.0290 38° Northeast 532 612 31,300 565 Climbing FlightAware ADS-B
Fri 00:23:25 47.3300 -66.9130 38° Northeast 528 608 31,800 505 Climbing FlightAware ADS-B
Fri 00:24:08 47.4120 -66.8170 38° Northeast 528 608 32,100 495 Climbing FlightAware ADS-B
Fri 00:25:02 47.5160 -66.6960 38° Northeast 528 608 32,600 474 Climbing FlightAware ADS-B
Fri 00:26:02 47.6310 -66.5600 39° Northeast 526 605 33,000 216 Climbing FlightAware ADS-B
Fri 00:26:53 47.7260 -66.4480 38° Northeast 527 606 33,000  Level FlightAware ADS-B
Fri 00:27:10 47.7600 -66.4070 39° Northeast 527 606 33,000  Level FlightAware ADS-B
Fri 00:27:41 47.8180 -66.3390 38° Northeast 528 608 33,000  Level FlightAware ADS-B
Fri 00:28:11 47.8750 -66.2700 39° Northeast 528 608 33,000  Level FlightAware ADS-B
Fri 00:29:08 47.9820 -66.1430 38° Northeast 526 605 33,000  Level FlightAware ADS-B
Fri 00:29:36 48.0360 -66.0770 39° Northeast 526 605 33,000  Level FlightAware ADS-B
Fri 00:30:27 48.1330 -65.9600 39° Northeast 527 606 33,000  Level FlightAware ADS-B
Fri 00:30:51 48.1790 -65.9050 39° Northeast 528 608 33,000  Level FlightAware ADS-B
Fri 00:31:49 48.2880 -65.7710 39° Northeast 526 605 33,000  Level FlightAware ADS-B
Fri 00:32:53 48.4080 -65.6250 39° Northeast 525 604 33,000  Level FlightAware ADS-B
Fri 00:33:46 48.5090 -65.5000 39° Northeast 529 609 33,000  Level FlightAware ADS-B
Fri 00:34:42 48.6160 -65.3680 39° Northeast 528 608 33,000  Level FlightAware ADS-B
Fri 00:35:09 48.6650 -65.3070 39° Northeast 529 609 33,000  Level FlightAware ADS-B
Fri 00:35:41 48.7260 -65.2310 39° Northeast 530 610 33,000  Level FlightAware ADS-B
Fri 00:36:36 48.8290 -65.1010 40° Northeast 528 608 33,000  Level FlightAware ADS-B
Fri 00:37:19 48.9100 -64.9990 40° Northeast 526 605 33,000  Level FlightAware ADS-B
Fri 00:37:52 48.9710 -64.9230 39° Northeast 529 609 33,000  Level FlightAware ADS-B
Fri 00:38:53 49.0860 -64.7780 40° Northeast 531 611 33,000  Level FlightAware ADS-B
Fri 00:39:16 49.1290 -64.7220 40° Northeast 531 611 33,000  Level FlightAware ADS-B
Fri 00:40:17 49.2440 -64.5740 40° Northeast 529 609 33,000  Level FlightAware ADS-B
Fri 00:40:59 49.3240 -64.4720 40° Northeast 528 608 33,000  Level FlightAware ADS-B
Fri 00:41:24 49.3680 -64.4150 40° Northeast 528 608 33,000  Level FlightAware ADS-B
Fri 00:42:20 49.4740 -64.2770 40° Northeast 530 610 33,000  Level FlightAware ADS-B
Fri 00:42:50 49.5310 -64.2030 40° Northeast 531 611 33,000  Level FlightAware ADS-B
Fri 00:43:46 49.6350 -64.0660 40° Northeast 529 609 33,000  Level FlightAware ADS-B
Fri 00:44:43 49.7410 -63.9270 40° Northeast 527 606 33,000  Level FlightAware ADS-B
Fri 00:45:39 49.8440 -63.7900 41° Northeast 527 606 33,000  Level FlightAware ADS-B
Fri 00:46:40 49.9560 -63.6410 41° Northeast 527 606 33,000  Level FlightAware ADS-B
Fri 00:47:26 50.0420 -63.5260 41° Northeast 527 606 33,000  Level FlightAware ADS-B
Fri 00:47:46 50.0750 -63.4810 41° Northeast 528 608 33,000  Level FlightAware ADS-B
Fri 00:48:19 50.1330 -63.4050 40° Northeast 528 608 33,000  Level FlightAware ADS-B
Fri 00:49:07 50.2090 -63.3050 40° Northeast 528 608 33,000  Level FlightAware ADS-B
Fri 00:50:07 50.3050 -63.1800 40° Northeast 528 608 33,000  Level FlightAware ADS-B
Fri 00:50:31 50.3430 -63.1300 40° Northeast 528 608 33,000  Level FlightAware ADS-B
Fri 00:51:07 50.4000 -63.0540 40° Northeast 528 608 33,000  Level FlightAware ADS-B
Fri 00:52:08 50.4970 -62.9260 40° Northeast 528 608 33,000  Level FlightAware ADS-B
Fri 00:52:44 50.5540 -62.8510 40° Northeast 528 608 33,000  Level FlightAware ADS-B
Fri 00:53:30 50.7000 -62.6000 40° Northeast 530 610 33,000  Level Moncton Center
Fri 00:54:30 50.8000 -62.4333 46° Northeast 520 598 33,000  Level Moncton Center
Fri 00:55:30 50.9167 -62.3000 36° Northeast 510 587 33,000  Level Moncton Center
Fri 00:56:30 51.0167 -62.1333 46° Northeast 520 598 33,000  Level Moncton Center
Fri 00:57:30 51.1167 -61.9667 46° Northeast 520 598 33,000  Level Moncton Center
Fri 00:58:30 51.2333 -61.8333 36° Northeast 520 598 33,000  Level Moncton Center
Fri 00:59:30 51.3500 -61.6667 42° Northeast 520 598 33,000  Level Moncton Center
Fri 01:00:30 51.4500 -61.5167 43° Northeast 520 598 33,000  Level Moncton Center
Fri 01:01:30 51.5667 -61.3500 42° Northeast 520 598 33,000  Level Moncton Center
Fri 01:02:30 51.6500 -61.2167 45° Northeast 520 598 33,000  Level Moncton Center
Fri 01:03:30 51.7667 -61.0500 41° Northeast 520 598 33,000  Level Moncton Center
Fri 01:04:30 51.8833 -60.8667 44° Northeast 530 610 33,000  Level Moncton Center
Fri 01:05:30 51.9833 -60.7333 39° Northeast 530 610 33,000  Level Moncton Center
Fri 01:06:30 52.0833 -60.5500 48° Northeast 530 610 33,000  Level Moncton Center
Fri 01:07:30 52.2000 -60.3833 41° Northeast 530 610 33,000  Level Moncton Center
Fri 01:08:30 52.3000 -60.2167 46° Northeast 530 610 33,000  Level Moncton Center
Fri 01:09:30 52.3833 -60.0333 53° Northeast 530 610 33,000  Level Moncton Center
Fri 01:10:30 52.4833 -59.8667 45° Northeast 530 610 33,000  Level Moncton Center
Fri 01:11:30 52.6000 -59.6833 44° Northeast 530 610 33,000  Level Moncton Center
Fri 01:12:30 52.6833 -59.5167 50° Northeast 520 598 33,000  Level Moncton Center
Fri 01:13:30 52.8000 -59.3333 43° Northeast 520 598 33,000  Level Moncton Center
Fri 01:14:30 52.9000 -59.1500 48° Northeast 520 598 33,000  Level Moncton Center
Fri 01:15:30 53.0000 -58.9833 45° Northeast 520 598 33,000  Level Moncton Center
Fri 01:16:30 53.1000 -58.8000 48° Northeast 520 598 33,000  Level Moncton Center
Fri 01:17:30 53.1833 -58.6167 53° Northeast 520 598 33,000  Level Moncton Center
Fri 01:18:30 53.2833 -58.4333 48° Northeast 520 598 33,000  Level Moncton Center
Fri 01:19:30 53.3833 -58.2333 50° Northeast 520 598 33,000  Level Moncton Center
Fri 01:20:30 53.4833 -58.0667 45° Northeast 530 610 33,000  Level Moncton Center
Fri 01:21:35 53.6000 -57.8500 48° Northeast 530 610 33,000  Level Gander Center
Fri 01:22:35 53.6833 -57.6667 52° Northeast 530 610 33,000  Level Gander Center
Fri 01:23:35 53.7833 -57.4833 47° Northeast 530 610 33,000  Level Gander Center
Fri 01:24:35 53.8833 -57.3167 44° Northeast 520 598 33,000  Level Gander Center
Fri 01:25:30 53.9667 -57.1500 50° Northeast 520 598 33,000  Level Moncton Center
Fri 01:26:30 54.0500 -56.9333 57° Northeast 520 598 33,000  Level Moncton Center
Fri 01:27:30 54.1667 -56.7667 40° Northeast 520 598 33,000  Level Moncton Center
Fri 01:28:30 54.2500 -56.5500 57° Northeast 520 598 33,000  Level Moncton Center
Fri 01:29:30 54.3333 -56.3667 52° Northeast 520 598 33,000  Level Moncton Center
Fri 01:30:35 54.4500 -56.1667 45° Northeast 520 598 33,000  Level Gander Center
Fri 01:31:35 54.5333 -55.9833 52° Northeast 530 610 33,000  Level Gander Center
Fri 01:32:30 54.6167 -55.8167 49° Northeast 520 598 33,000  Level Moncton Center
Fri 01:33:30 54.7000 -55.6000 56° Northeast 530 610 33,000  Level Moncton Center
Fri 01:34:30 54.7833 -55.4000 54° Northeast 530 610 33,000  Level Moncton Center
Fri 01:35:30 54.8667 -55.1833 56° Northeast 530 610 33,000  Level Moncton Center
Fri 01:36:30 54.9667 -54.9833 49° Northeast 520 598 33,000  Level Moncton Center
Fri 01:37:30 55.0667 -54.7667 51° Northeast 520 598 33,000  Level Moncton Center
Fri 01:38:30 55.1500 -54.5833 51° Northeast 520 598 33,000  Level Moncton Center
Fri 01:39:30 55.2333 -54.3667 56° Northeast 520 598 33,000  Level Moncton Center
Fri 01:40:35 55.3333 -54.1333 53° Northeast 520 598 33,000  Level Gander Center
Fri 01:41:35 55.4000 -53.9500 57° Northeast 530 610 33,000  Level Gander Center
Fri 01:42:35 55.4833 -53.7167 58° Northeast 530 610 33,000  Level Gander Center
Fri 01:43:35 55.5833 -53.5333 46° Northeast 500 575 33,000  Level Gander Center
Fri 01:44:35 55.7000 -53.3000 48° Northeast 520 598 33,000  Level Gander Center
Fri 01:45:35 55.7500 -53.1667 56° Northeast 530 610 33,000  Level Gander Center
Fri 01:46:35 55.8333 -52.9500 56° Northeast 530 610 33,000  Level Gander Center
Fri 01:47:35 55.9167 -52.7167 57° Northeast 520 598 33,000  Level Gander Center
Fri 01:48:35 56.0000 -52.5167 53° Northeast 530 610 33,000  Level Gander Center
Fri 01:49:35 56.0667 -52.3000 61° Northeast 530 610 33,000  Level Gander Center
Fri 01:50:35 56.1667 -52.0833 50° Northeast 530 610 33,000  Level Gander Center
Fri 01:51:35 56.2500 -51.8500 57° Northeast 530 610 33,000  Level Gander Center
Fri 01:52:35 56.3167 -51.6500 59° Northeast 530 610 33,000  Level Gander Center
Fri 01:53:35 56.4000 -51.4167 57° Northeast 530 610 33,000  Level Gander Center
Fri 01:55:00 56.5591 -51.2606 28° Northeast  Level Estimated
Fri 02:02:00 57.3421 -50.4700 29° Northeast  Level Estimated
Fri 02:02:57 57.1500 -49.2833 30° Northeast 530 610 33,000  Level Gander Center
Fri 02:03:00 57.4535 -50.3543 29° Northeast  Level Estimated
Fri 02:03:57 57.2000 -49.0167 71° East 530 610 33,000  Level Gander Center
Fri 02:04:00 57.5649 -50.2379 29° Northeast  Level Estimated
Fri 02:04:57 57.2667 -48.7667 64° Northeast 530 610 33,000  Level Gander Center
Fri 02:05:00 57.6761 -50.1208 29° Northeast  Level Estimated
Fri 02:05:57 57.3333 -48.5000 65° Northeast 530 610 33,000  Level Gander Center
Fri 02:06:00 57.7872 -50.0029 29° Northeast  Level Estimated
Fri 02:06:57 57.3667 -48.2667 75° East 530 610 33,000  Level Gander Center
Fri 02:07:00 57.8982 -49.8844 30° Northeast  Level Estimated
Fri 02:07:57 57.4333 -48.0333 62° Northeast 530 610 33,000  Level Gander Center
Fri 02:08:00 58.0091 -49.7651 30° Northeast  Level Estimated
Fri 02:08:57 57.4833 -47.7833 69° East 530 610 33,000  Level Gander Center
Fri 02:09:57 57.5500 -47.5167 65° Northeast 530 610 33,000  Level Gander Center
Fri 02:10:57 57.6000 -47.2667 69° East 530 610 33,000  Level Gander Center
Fri 02:11:57 57.6667 -47.0333 62° Northeast 530 610 33,000  Level Gander Center
Fri 02:12:57 57.7167 -46.7500 72° East 530 610 33,000  Level Gander Center
Fri 02:13:57 57.7667 -46.5000 69° East 530 610 33,000  Level Gander Center
Fri 02:14:57 57.8333 -46.2333 65° Northeast 530 610 33,000  Level Gander Center
Fri 02:15:57 57.8833 -45.9833 69° East 540 621 33,000  Level Gander Center
Fri 02:16:57 57.9333 -45.7333 69° East 540 621 33,000  Level Gander Center
Fri 02:17:57 57.9833 -45.4500 71° East 540 621 33,000  Level Gander Center
Fri 02:18:57 58.0500 -45.2167 62° Northeast 540 621 33,000  Level Gander Center
Fri 02:19:57 58.1000 -44.9333 71° East 540 621 33,000  Level Gander Center
Fri 02:20:57 58.1500 -44.6833 69° East 540 621 33,000  Level Gander Center
Fri 02:21:57 58.2000 -44.4000 71° East 540 621 33,000  Level Gander Center
Fri 02:22:57 58.2500 -44.1500 69° East 550 633 33,000  Level Gander Center
Fri 02:23:57 58.3000 -43.8667 71° East 550 633 33,000  Level Gander Center
Fri 02:24:57 58.3667 -43.5667 67° East 560 644 33,000  Level Gander Center
Fri 02:25:57 58.4000 -43.2833 77° East 560 644 33,000  Level Gander Center
Fri 02:26:57 58.4500 -43.0333 69° East 560 644 33,000  Level Gander Center
Fri 02:27:57 58.5000 -42.7500 71° East 570 656 33,000  Level Gander Center
Fri 02:28:57 58.5667 -42.4500 67° East 580 667 33,000  Level Gander Center
Fri 02:29:57 58.6000 -42.1667 77° East 580 667 33,000  Level Gander Center
Fri 02:30:57 58.6667 -41.8667 67° East 580 667 33,000  Level Gander Center
Fri 02:31:57 58.7000 -41.5833 77° East 580 667 33,000  Level Gander Center
Fri 02:32:57 58.7500 -41.3000 71° East 580 667 33,000  Level Gander Center
Fri 02:33:57 58.8000 -41.0000 72° East 580 667 33,000  Level Gander Center
Fri 02:34:57 58.8500 -40.7000 72° East 580 667 33,000  Level Gander Center
Fri 02:35:57 58.8833 -40.4167 77° East 580 667 33,000  Level Gander Center
Fri 02:36:57 58.9500 -40.1167 67° East 580 667 33,000  Level Gander Center
Fri 02:37:57 58.9833 -39.8333 77° East 580 667 33,000  Level Gander Center
Fri 02:38:57 59.0333 -39.5167 73° East 580 667 33,000  Level Gander Center
Fri 02:39:57 59.0667 -39.2000 78° East 580 667 33,000  Level Gander Center
Fri 02:40:57 59.1000 -38.9000 78° East 580 667 33,000  Level Gander Center
Fri 02:41:57 59.1333 -38.6167 77° East 580 667 33,000  Level Gander Center
Fri 02:42:57 59.1833 -38.3000 73° East 580 667 33,000  Level Gander Center
Fri 02:43:57 59.2167 -38.0167 77° East 580 667 33,000  Level Gander Center
Fri 02:44:57 59.2500 -37.7167 78° East 580 667 33,000  Level Gander Center
Fri 02:45:57 59.3000 -37.3833 73° East 590 679 33,000  Level Gander Center
Fri 02:46:57 59.3333 -37.0833 78° East 580 667 33,000  Level Gander Center
Fri 02:47:57 59.3667 -36.7833 78° East 580 667 33,000  Level Gander Center
Fri 02:48:57 59.4000 -36.4833 78° East 580 667 33,000  Level Gander Center
Fri 02:49:57 59.4500 -36.1833 72° East 580 667 33,000  Level Gander Center
Fri 02:50:57 59.4667 -35.8833 84° East 590 679 33,000  Level Gander Center
Fri 02:51:57 59.5000 -35.5500 79° East 590 679 33,000  Level Gander Center
Fri 02:52:57 59.5333 -35.2333 78° East 590 679 33,000  Level Gander Center
Fri 02:53:57 59.5667 -34.9333 78° East 590 679 33,000  Level Gander Center
Fri 02:54:57 59.6000 -34.6333 77° East 590 679 33,000  Level Gander Center
Fri 02:56:00 59.6945 -34.4452 45° Northeast  Level Estimated
Fri 03:03:00 60.3178 -33.1633 45° Northeast  Level Estimated
Fri 03:04:00 60.4058 -32.9762 46° Northeast  Level Estimated
Fri 03:05:00 60.4935 -32.7881 47° Northeast  Level Estimated
Fri 03:06:00 60.5810 -32.5989 47° Northeast  Level Estimated
Fri 03:07:00 60.6682 -32.4088 47° Northeast  Level Estimated
Fri 03:08:00 60.7551 -32.2176 47° Northeast  Level Estimated
Fri 03:09:00 60.8418 -32.0253 47° Northeast  Level Estimated
Fri 03:10:00 60.9282 -31.8321 47° Northeast  Level Estimated
Fri 03:11:00 61.0143 -31.6377 48° Northeast  Level Estimated
Fri 03:12:00 61.1001 -31.4424 48° Northeast  Level Estimated
Fri 03:13:00 61.1857 -31.2459 48° Northeast  Level Estimated
Fri 03:14:00 61.2709 -31.0484 48° Northeast  Level Estimated
Fri 03:15:00 61.3559 -30.8498 48° Northeast  Level Estimated
Fri 03:16:00 61.4406 -30.6502 48° Northeast  Level Estimated
Fri 03:17:00 61.5249 -30.4494 49° Northeast  Level Estimated
Fri 03:18:00 61.6090 -30.2476 49° Northeast  Level Estimated
Fri 03:19:00 61.6928 -30.0446 49° Northeast  Level Estimated
Fri 03:20:00 61.7763 -29.8406 49° Northeast  Level Estimated
Fri 03:21:00 61.8595 -29.6354 49° Northeast  Level Estimated
Fri 03:22:00 61.9424 -29.4292 49° Northeast  Level Estimated
Fri 03:22:00 60.0000 -30.0000 74° East 582 670 33,000  Level ETMS Enhanced Traffic Management System
Fri 03:23:00 62.0249 -29.2218 50° Northeast  Level Estimated
Fri 03:23:59 60.5220 -25.6090 50° Northeast 583 671 33,000  Level FlightAware ADS-B
Fri 03:24:00 62.1072 -29.0133 50° Northeast  Level Estimated
Fri 03:25:08 60.5600 -25.2400 78° East 582 670 33,000  Level FlightAware ADS-B
Fri 03:25:39 60.5760 -25.0790 78° East 583 671 33,000  Level FlightAware ADS-B
Fri 03:26:51 60.6150 -24.6880 78° East 581 669 33,000  Level FlightAware ADS-B
Fri 03:27:25 60.6330 -24.5040 79° East 582 670 33,000  Level FlightAware ADS-B
Fri 03:28:00 60.6720 -24.2675 79° East 582 670 33,000  Level FlightAware Transoceanic
Fri 03:28:00 60.6510 -24.3140 79° East 584 672 33,000  Level FlightAware ADS-B
Fri 03:28:32 60.6670 -24.1430 79° East 585 673 33,000  Level FlightAware ADS-B
Fri 03:29:00 60.6800 -23.9950 80° East 584 672 33,000  Level FlightAware ADS-B
Fri 03:29:44 60.7020 -23.7580 79° East 582 670 33,000  Level FlightAware ADS-B
Fri 03:30:24 60.7210 -23.5390 80° East 583 671 33,000  Level FlightAware ADS-B
Fri 03:30:56 60.7360 -23.3670 80° East 582 670 33,000  Level FlightAware ADS-B
Fri 03:31:52 60.7620 -23.0600 80° East 582 670 33,000  Level FlightAware ADS-B
Fri 03:32:56 60.7900 -22.7240 80° East 579 666 33,000  Level FlightAware ADS-B
Fri 03:33:33 60.8070 -22.5200 80° East 579 666 33,000  Level FlightAware ADS-B
Fri 03:34:32 60.8320 -22.1960 81° East 582 670 33,000  Level FlightAware ADS-B
Fri 03:35:08 60.8470 -22.0040 81° East 582 670 33,000  Level FlightAware ADS-B
Fri 03:35:45 60.8620 -21.8020 81° East 581 669 33,000  Level FlightAware ADS-B
Fri 03:36:47 60.8860 -21.4750 81° East 578 665 33,000  Level FlightAware ADS-B
Fri 03:37:24 60.9010 -21.2630 82° East 577 664 33,000  Level FlightAware ADS-B
Fri 03:37:58 60.9130 -21.0790 82° East 579 666 33,000  Level FlightAware ADS-B
Fri 03:39:02 60.9360 -20.7390 82° East 579 666 33,000  Level FlightAware ADS-B
Fri 03:39:42 60.9510 -20.5180 82° East 579 666 33,000  Level FlightAware ADS-B
Fri 03:40:50 60.9730 -20.1510 83° East 581 669 33,000  Level FlightAware ADS-B
Fri 03:41:24 60.9760 -19.9560 88° East 577 664 33,000  Level FlightAware ADS-B
Fri 03:42:00 60.9690 -19.7700 94° East 571 657 33,000  Level FlightAware ADS-B
Fri 03:42:41 60.9550 -19.5450 97° East 571 657 33,000  Level FlightAware ADS-B
Fri 03:43:20 60.9410 -19.3330 98° East 571 657 33,000  Level FlightAware ADS-B
Fri 03:44:27 60.9220 -19.0440 98° East 569 655 33,000  Level FlightAware ADS-B
Fri 03:44:54 60.9110 -18.8830 98° East 568 654 33,000  Level FlightAware ADS-B
Fri 03:45:03 60.9070 -18.8310 99° East 569 655 33,000  Level FlightAware ADS-B
Fri 03:46:29 60.8740 -18.3600 98° East 571 657 33,000  Level FlightAware ADS-B
Fri 03:46:52 60.8620 -18.1960 98° East 568 654 33,000  Level FlightAware ADS-B
Fri 03:47:28 60.8480 -18.0080 99° East 565 650 33,000  Level FlightAware ADS-B
Fri 03:48:08 60.8320 -17.8010 99° East 564 649 33,000  Level FlightAware ADS-B
Fri 03:48:36 60.8210 -17.6600 99° East 564 649 33,000  Level FlightAware ADS-B
Fri 03:49:19 60.8050 -17.4520 99° East 564 649 33,000  Level FlightAware ADS-B
Fri 03:50:19 60.7840 -17.1820 99° East 564 649 33,000  Level FlightAware ADS-B
Fri 03:51:20 60.7620 -16.9090 99° East 564 649 33,000  Level FlightAware ADS-B
Fri 03:52:08 60.7460 -16.6930 99° East 564 649 33,000  Level FlightAware ADS-B
Fri 03:52:44 60.7330 -16.5320 99° East 564 649 33,000  Level FlightAware ADS-B
Fri 03:53:21 60.7200 -16.3660 99° East 564 649 33,000  Level FlightAware ADS-B
Fri 03:53:57 60.7080 -16.2050 99° East 564 649 33,000  Level FlightAware ADS-B
Fri 03:54:33 60.6950 -16.0440 99° East 564 649 33,000  Level FlightAware ADS-B
Fri 03:55:09 60.6830 -15.8830 99° East 564 649 33,000  Level FlightAware ADS-B
Fri 03:55:45 60.6700 -15.7220 99° East 564 649 33,000  Level FlightAware ADS-B
Fri 03:56:21 60.6580 -15.5610 99° East 564 649 33,000  Level FlightAware ADS-B
Fri 03:56:57 60.6450 -15.4000 99° East 564 649 33,000  Level FlightAware ADS-B
Fri 03:57:33 60.6330 -15.2390 99° East 564 649 33,000  Level FlightAware ADS-B
Fri 03:58:09 60.6200 -15.0780 99° East 564 649 33,000  Level FlightAware ADS-B
Fri 03:58:45 60.6080 -14.9180 99° East 564 649 33,000 172 Level FlightAware ADS-B
Fri 04:01:00 60.7343 -14.3911 64° Northeast  Level Estimated
Fri 04:02:00 60.7897 -14.1556 64° Northeast  Level Estimated
Fri 04:03:00 60.8448 -13.9193 64° Northeast  Level Estimated
Fri 04:04:00 60.8994 -13.6822 65° Northeast  Level Estimated
Fri 04:05:00 60.9537 -13.4443 65° Northeast  Level Estimated
Fri 04:06:00 61.0074 -13.2056 65° Northeast  Level Estimated
Fri 04:07:00 61.0608 -12.9660 65° Northeast  Level Estimated
Fri 04:08:00 61.1138 -12.7257 65° Northeast  Level Estimated
Fri 04:09:00 61.1663 -12.4845 66° East  Level Estimated
Fri 04:09:46 60.1680 -11.2340 66° East 544 626 35,000  Level FlightAware ADS-B
Fri 04:10:00 61.2184 -12.2426 66° East  Level Estimated
Fri 04:10:16 60.1470 -11.0740 105° East 542 624 35,000  Level FlightAware ADS-B
Fri 04:11:23 60.1060 -10.7700 105° East 541 623 35,000  Level FlightAware ADS-B
Fri 04:12:18 60.0740 -10.5290 105° East 545 627 35,000  Level FlightAware ADS-B
Fri 04:12:52 60.0450 -10.3200 105° East 544 626 35,000  Level FlightAware ADS-B
Fri 04:13:32 60.0170 -10.1250 106° East 540 621 35,000  Level FlightAware ADS-B
Fri 04:14:03 60.0000 -9.9870 104° East 536 617 35,000  Level FlightAware ADS-B
Fri 04:14:39 59.9860 -9.8110 99° East 540 621 35,000  Level FlightAware ADS-B
Fri 04:15:14 59.9750 -9.6350 97° East 538 619 35,000  Level FlightAware ADS-B
Fri 04:15:58 59.9720 -9.4140 91° East 536 617 35,000  Level FlightAware ADS-B
Fri 04:16:35 59.9810 -9.2400 84° East 531 611 35,000  Level FlightAware ADS-B
Fri 04:17:22 59.9950 -9.0020 83° East 529 609 35,000  Level FlightAware ADS-B
Fri 04:17:48 60.0010 -8.8940 83° East 531 611 35,000  Level FlightAware ADS-B
Fri 04:18:20 59.9974 -8.7133 83° East 472 543 35,000  Level FlightAware UK
Fri 04:18:50 59.9988 -8.5614 83° East 478 550 35,000  Level FlightAware UK
Fri 04:19:03 59.9990 -8.5050 89° East 536 617 35,000  Level FlightAware ADS-B
Fri 04:19:20 59.9997 -8.4077 89° East 474 545 35,000  Level FlightAware UK
Fri 04:19:34 59.9990 -8.3540 89° East 533 613 35,000  Level FlightAware ADS-B
Fri 04:19:50 59.9987 -8.2618 89° East 474 545 35,000  Level FlightAware UK
Fri 04:20:20 59.9974 -8.1154 89° East 476 548 35,000  Level FlightAware UK
Fri 04:20:39 59.9970 -8.0360 91° East 540 621 35,000  Level FlightAware ADS-B
Fri 04:20:50 59.9960 -7.9680 91° East 478 550 35,000  Level FlightAware UK
Fri 04:21:21 59.9950 -7.8175 91° East 476 548 35,000  Level FlightAware UK
Fri 04:21:45 59.9940 -7.7070 91° East 538 619 35,000  Level FlightAware ADS-B
Fri 04:21:51 59.9935 -7.6687 91° East 478 550 35,000  Level FlightAware UK
Fri 04:22:15 59.9920 -7.5590 91° East 535 616 35,000  Level FlightAware ADS-B
Fri 04:22:21 59.9917 -7.5202 91° East 472 543 35,000  Level FlightAware UK
Fri 04:22:51 59.9899 -7.3723 91° East 476 548 35,000  Level FlightAware UK
Fri 04:22:55 59.9900 -7.3660 91° East 536 617 35,000  Level FlightAware ADS-B
Fri 04:23:21 59.9880 -7.2246 91° East 474 545 35,000  Level FlightAware UK
Fri 04:23:35 59.9870 -7.1650 91° East 535 616 35,000  Level FlightAware ADS-B
Fri 04:23:51 59.9858 -7.0769 91° East 476 548 35,000  Level FlightAware UK
Fri 04:24:10 59.9850 -6.9990 91° East 533 613 35,000  Level FlightAware ADS-B
Fri 04:24:21 59.9833 -6.9296 91° East 476 548 35,000  Level FlightAware UK
Fri 04:24:45 59.9820 -6.8230 92° East 528 608 35,000  Level FlightAware ADS-B
Fri 04:24:51 59.9807 -6.7830 91° East 474 545 35,000  Level FlightAware UK
Fri 04:25:21 59.9783 -6.6379 92° East 474 545 35,000  Level FlightAware UK
Fri 04:25:51 59.9756 -6.4934 92° East 472 543 35,000  Level FlightAware UK
Fri 04:26:06 59.9740 -6.4310 92° East 528 608 35,000  Level FlightAware ADS-B
Fri 04:26:21 59.9727 -6.3471 92° East 476 548 35,000  Level FlightAware UK
Fri 04:26:43 59.9720 -6.3090 92° East 529 609 35,000  Level FlightAware ADS-B
Fri 04:26:51 59.9695 -6.2013 92° East 472 543 35,000  Level FlightAware UK
Fri 04:27:18 59.9680 -6.1220 93° East 530 610 35,000  Level FlightAware ADS-B
Fri 04:27:21 59.9661 -6.0553 92° East 482 555 35,000  Level FlightAware UK
Fri 04:27:51 59.9626 -5.9090 93° East 474 545 35,000  Level FlightAware UK
Fri 04:27:58 59.9640 -5.9530 93° East 527 606 35,000  Level FlightAware ADS-B
Fri 04:28:21 59.9593 -5.7636 93° East 472 543 35,000  Level FlightAware UK
Fri 04:28:33 59.9590 -5.7660 93° East 524 603 35,000  Level FlightAware ADS-B
Fri 04:28:51 59.9555 -5.6190 93° East 472 543 35,000  Level FlightAware UK
Fri 04:29:19 59.9530 -5.5320 93° East 527 606 35,000  Level FlightAware ADS-B
Fri 04:29:21 59.9516 -5.4736 93° East 478 550 35,000  Level FlightAware UK
Fri 04:29:51 59.9474 -5.3284 93° East 470 541 35,000  Level FlightAware UK
Fri 04:30:10 59.9460 -5.2830 93° East 523 602 35,000  Level FlightAware ADS-B
Fri 04:30:21 59.9432 -5.1838 93° East 472 543 35,000  Level FlightAware UK
Fri 04:30:47 59.9410 -5.1000 93° East 525 604 35,000  Level FlightAware ADS-B
Fri 04:30:57 59.9381 -5.0116 93° East 476 548 35,000  Level FlightAware UK
Fri 04:31:26 59.9350 -4.9110 93° East 523 602 35,000  Level FlightAware ADS-B
Fri 04:31:27 59.9334 -4.8663 93° East 472 543 35,000  Level FlightAware UK
Fri 04:32:09 59.9267 -4.6649 93° East 462 532 35,000  Level FlightAware UK
Fri 04:32:10 59.9280 -4.7020 94° East 519 597 35,000  Level FlightAware ADS-B
Fri 04:32:39 59.9220 -4.5232 94° East 464 534 35,000  Level FlightAware UK
Fri 04:32:56 59.9210 -4.4820 94° East 517 595 35,000  Level FlightAware ADS-B
Fri 04:33:09 59.9170 -4.3815 94° East 466 536 35,000  Level FlightAware UK
Fri 04:33:35 59.9130 -4.2620 94° East 519 597 35,000  Level FlightAware ADS-B
Fri 04:33:45 59.9108 -4.2108 94° East 468 539 35,000  Level FlightAware UK
Fri 04:34:15 59.9053 -4.0673 94° East 468 539 35,000  Level FlightAware UK
Fri 04:34:40 59.9030 -3.9880 94° East 518 596 35,000  Level FlightAware ADS-B
Fri 04:34:45 59.8999 -3.9249 94° East 468 539 35,000  Level FlightAware UK
Fri 04:35:27 59.8921 -3.7266 94° East 468 539 35,000  Level FlightAware UK
Fri 04:35:47 59.8885 -3.6398 94° East 515 593 35,000  Level FlightAware ADS-B
Fri 04:36:27 59.8806 -3.4504 95° East 518 596 35,000  Level FlightAware ADS-B
Fri 04:37:06 59.8725 -3.2645 95° East 515 593 35,000  Level FlightAware ADS-B
Fri 04:37:50 59.8631 -3.0580 95° East 513 590 35,000  Level FlightAware ADS-B
Fri 04:38:26 59.8554 -2.8910 95° East 513 590 35,000  Level FlightAware ADS-B
Fri 04:39:04 59.8469 -2.7138 95° East 506 582 35,000  Level FlightAware ADS-B
Fri 04:39:34 59.8401 -2.5754 96° East 506 582 35,000  Level FlightAware ADS-B
Fri 04:40:04 59.8331 -2.4355 96° East 506 582 35,000  Level FlightAware ADS-B
Fri 04:40:39 59.8249 -2.2738 96° East 510 587 35,000  Level FlightAware ADS-B
Fri 04:41:10 59.8176 -2.1342 96° East 513 590 35,000  Level FlightAware ADS-B
Fri 04:41:40 59.8099 -1.9911 96° East 513 590 35,000  Level FlightAware ADS-B
Fri 04:42:12 59.8018 -1.8427 96° East 511 588 35,000  Level FlightAware ADS-B
Fri 04:42:42 59.7940 -1.7043 96° East 510 587 35,000  Level FlightAware ADS-B
Fri 04:43:15 59.7853 -1.5490 96° East 513 590 35,000  Level FlightAware ADS-B
Fri 04:43:16 59.7842 -1.5371 96° East 468 539 35,000  Level FlightAware UK
Fri 04:43:52 59.7742 -1.3688 96° East 468 539 35,000  Level FlightAware UK
Fri 04:44:23 59.7660 -1.2279 97° East 468 539 35,000  Level FlightAware UK
Fri 04:44:34 59.7636 -1.1820 97° East 513 590 35,000  Level FlightAware ADS-B
Fri 04:45:29 59.7473 -0.9212 97° East 468 539 35,000  Level FlightAware UK
Fri 04:45:42 59.7442 -0.8679 97° East 509 586 35,000  Level FlightAware ADS-B
Fri 04:46:17 59.7340 -0.7063 97° East 510 587 35,000  Level FlightAware ADS-B
Fri 04:46:47 59.7244 -0.5611 97° East 466 536 35,000  Level FlightAware UK
Fri 04:46:57 59.7220 -0.5215 97° East 511 588 35,000  Level FlightAware ADS-B
Fri 04:47:27 59.7127 -0.3801 97° East 511 588 35,000  Level FlightAware ADS-B
Fri 04:47:29 59.7117 -0.3671 97° East 468 539 35,000  Level FlightAware UK
Fri 04:47:58 59.7029 -0.2356 98° East 508 585 35,000  Level FlightAware ADS-B
Fri 04:48:38 59.6905 -0.0538 98° East 508 585 35,000  Level FlightAware ADS-B
Fri 04:49:09 59.6806 0.0880 98° East 512 589 35,000  Level FlightAware ADS-B
Fri 04:49:55 59.6654 0.2998 98° East 511 588 35,000  Level FlightAware ADS-B
Fri 04:50:34 59.6521 0.4824 98° East 509 586 35,000  Level FlightAware ADS-B
Fri 04:51:08 59.6403 0.6389 98° East 511 588 35,000  Level FlightAware ADS-B
Fri 04:51:48 59.6177 0.8211 104° East 514 592 35,000  Level FlightAware ADS-B
Fri 04:52:44 59.5841 1.0756 105° East 523 602 35,000  Level FlightAware ADS-B
Fri 04:53:30 59.5547 1.2925 105° East 474 545 35,000  Level FlightAware UK
Fri 04:53:40 59.5477 1.3348 105° East 531 611 35,000  Level FlightAware ADS-B
Fri 04:54:11 59.5168 1.4700 114° Southeast 535 616 35,000  Level FlightAware ADS-B
Fri 04:54:41 59.4859 1.6013 115° Southeast 527 606 35,000  Level FlightAware ADS-B
Fri 04:55:11 59.4552 1.7320 115° Southeast 527 606 35,000  Level FlightAware ADS-B
Fri 04:55:41 59.4244 1.8624 115° Southeast 534 615 35,000  Level FlightAware ADS-B
Fri 04:56:12 59.3907 2.0047 115° Southeast 478 550 35,000  Level FlightAware UK
Fri 04:56:28 59.3746 2.0715 115° Southeast 532 612 35,000  Level FlightAware ADS-B
Fri 04:56:59 59.3425 2.2049 115° Southeast 529 609 35,000  Level FlightAware ADS-B
Fri 04:57:42 59.2979 2.3895 115° Southeast 530 610 35,000  Level FlightAware ADS-B
Fri 04:57:43 59.2960 2.3966 115° Southeast 472 543 35,000  Level FlightAware UK
Fri 04:58:12 59.2658 2.5215 115° Southeast 530 610 35,000  Level FlightAware ADS-B
Fri 04:58:45 59.2319 2.6596 116° Southeast 528 608 35,000  Level FlightAware ADS-B
Fri 04:59:30 59.1842 2.8528 116° Southeast 526 605 35,000  Level FlightAware ADS-B
Fri 05:00:00 59.1520 2.9824 116° Southeast 528 608 35,000  Level FlightAware ADS-B
Fri 05:00:32 59.1179 3.1183 116° Southeast 527 606 35,000  Level FlightAware ADS-B
Fri 05:01:07 59.0798 3.2708 116° Southeast 472 543 35,000  Level FlightAware UK
Fri 05:01:38 59.0477 3.3966 116° Southeast 527 606 35,000  Level FlightAware ADS-B
Fri 05:02:13 59.0083 3.5523 116° Southeast 476 548 35,000  Level FlightAware UK
Fri 05:02:29 58.9916 3.6160 116° Southeast 525 604 35,000  Level FlightAware ADS-B
Fri 05:03:13 58.9428 3.8062 116° Southeast 476 548 35,000  Level FlightAware UK
Fri 05:03:39 58.9160 3.9090 117° Southeast 527 606 35,000  Level FlightAware ADS-B
Fri 05:03:49 58.9035 3.9574 117° Southeast 474 545 35,000  Level FlightAware UK
Fri 05:04:17 58.8740 4.0700 117° Southeast 525 604 35,000  Level FlightAware ADS-B
Fri 05:04:19 58.8698 4.0823 117° Southeast 472 543 35,000  Level FlightAware UK
Fri 05:04:49 58.8370 4.2085 117° Southeast 472 543 35,000  Level FlightAware UK
Fri 05:05:04 58.8230 4.2630 117° Southeast 525 604 35,000  Level FlightAware ADS-B
Fri 05:05:19 58.8038 4.3330 117° Southeast 470 541 35,000  Level FlightAware UK
Fri 05:05:39 58.7850 4.4070 117° Southeast 527 606 35,000  Level FlightAware ADS-B
Fri 05:06:01 58.7577 4.5080 117° Southeast 474 545 35,000  Level FlightAware UK
Fri 05:06:22 58.7360 4.5900 118° Southeast 528 608 35,000  Level FlightAware ADS-B
Fri 05:06:31 58.7242 4.6330 117° Southeast 476 548 35,000  Level FlightAware UK
Fri 05:07:01 58.6899 4.7578 118° Southeast 468 539 35,000  Level FlightAware UK
Fri 05:07:12 58.6800 4.7990 118° Southeast 528 608 35,000  Level FlightAware ADS-B
Fri 05:07:37 58.6493 4.9069 118° Southeast 474 545 35,000  Level FlightAware UK
Fri 05:07:53 58.6340 4.9680 118° Southeast 532 612 35,000  Level FlightAware ADS-B
Fri 05:08:19 58.6022 5.0825 118° Southeast 472 543 35,000  Level FlightAware UK
Fri 05:08:28 58.5940 5.1130 118° Southeast 530 610 35,000  Level FlightAware ADS-B
Fri 05:09:10 58.5460 5.2890 118° Southeast 530 610 35,000  Level FlightAware ADS-B
Fri 05:09:13 58.5415 5.3078 118° Southeast 478 550 35,000  Level FlightAware UK
Fri 05:09:46 58.5050 5.4350 118° Southeast 530 610 35,000  Level FlightAware ADS-B
Fri 05:10:18 58.4680 5.5670 118° Southeast 527 606 35,000  Level FlightAware ADS-B
Fri 05:10:58 58.4230 5.7290 118° Southeast 526 605 35,000  Level FlightAware ADS-B
Fri 05:11:41 58.3730 5.9040 119° Southeast 527 606 35,000  Level FlightAware ADS-B
Fri 05:12:20 58.3280 6.0630 118° Southeast 530 610 35,000  Level FlightAware ADS-B
Fri 05:12:57 58.2840 6.2160 119° Southeast 530 610 35,000  Level FlightAware ADS-B
Fri 05:13:44 58.2280 6.4090 119° Southeast 529 609 35,000  Level FlightAware ADS-B
Fri 05:14:28 58.1770 6.5860 119° Southeast 526 605 35,000  Level FlightAware ADS-B
Fri 05:15:03 58.1360 6.7250 119° Southeast 526 605 35,000  Level FlightAware ADS-B
Fri 05:15:46 58.0850 6.8980 119° Southeast 525 604 35,000  Level FlightAware ADS-B
Fri 05:16:30 58.0340 7.0700 119° Southeast 523 602 35,000  Level FlightAware ADS-B
Fri 05:17:11 57.9850 7.2340 119° Southeast 522 601 35,000  Level FlightAware ADS-B
Fri 05:17:39 57.9530 7.3380 120° Southeast 522 601 35,000  Level FlightAware ADS-B
Fri 05:18:19 57.9050 7.5000 119° Southeast 525 604 35,000  Level FlightAware ADS-B
Fri 05:19:21 57.8300 7.7450 120° Southeast 524 603 35,000  Level FlightAware ADS-B
Fri 05:20:03 57.7800 7.9040 120° Southeast 521 600 35,000  Level FlightAware ADS-B
Fri 05:20:35 57.7400 8.0340 120° Southeast 523 602 35,000  Level FlightAware ADS-B
Fri 05:21:13 57.6930 8.1830 121° Southeast 519 597 35,000  Level FlightAware ADS-B
Fri 05:21:51 57.6470 8.3270 121° Southeast 519 597 35,000  Level FlightAware ADS-B
Fri 05:22:25 57.6050 8.4580 121° Southeast 518 596 35,000  Level FlightAware ADS-B
Fri 05:23:13 57.5460 8.6430 121° Southeast 520 598 35,000  Level FlightAware ADS-B
Fri 05:23:57 57.4940 8.8040 121° Southeast 517 595 35,000  Level FlightAware ADS-B
Fri 05:24:37 57.4420 8.9620 121° Southeast 519 597 35,000  Level FlightAware ADS-B
Fri 05:25:17 57.3940 9.1090 121° Southeast 517 595 35,000  Level FlightAware ADS-B
Fri 05:25:55 57.3460 9.2540 121° Southeast 514 592 35,000  Level FlightAware ADS-B
Fri 05:26:27 57.3060 9.3760 121° Southeast 516 594 35,000  Level FlightAware ADS-B
Fri 05:27:07 57.2560 9.5250 122° Southeast 515 593 35,000  Level FlightAware ADS-B
Fri 05:27:53 57.1990 9.6940 122° Southeast 512 589 35,000  Level FlightAware ADS-B
Fri 05:28:39 57.1410 9.8670 122° Southeast 510 587 35,000  Level FlightAware ADS-B
Fri 05:29:13 57.0990 9.9890 122° Southeast 511 588 35,000  Level FlightAware ADS-B
Fri 05:29:55 57.0490 10.1350 122° Southeast 510 587 35,000  Level FlightAware ADS-B
Fri 05:30:35 56.9960 10.2890 122° Southeast 510 587 35,000  Level FlightAware ADS-B
Fri 05:31:37 56.9190 10.5120 122° Southeast 507 583 35,000  Level FlightAware ADS-B
Fri 05:32:15 56.8710 10.6490 123° Southeast 508 585 35,000  Level FlightAware ADS-B
Fri 05:33:03 56.8110 10.8210 122° Southeast 507 583 35,000  Level FlightAware ADS-B
Fri 05:33:47 56.7540 10.9800 123° Southeast 506 582 35,000  Level FlightAware ADS-B
Fri 05:34:19 56.7140 11.0920 123° Southeast 506 582 35,000  Level FlightAware ADS-B
Fri 05:35:07 56.6530 11.2640 123° Southeast 506 582 35,000  Level FlightAware ADS-B
Fri 05:35:35 56.6170 11.3630 123° Southeast 508 585 35,000  Level FlightAware ADS-B
Fri 05:36:21 56.5561 11.5313 123° Southeast 511 588 35,000  Level FlightAware ADS-B
Fri 05:37:32 56.4640 11.7831 123° Southeast 510 587 35,000  Level FlightAware ADS-B
Fri 05:38:02 56.4252 11.8882 124° Southeast 509 586 35,000  Level FlightAware ADS-B
Fri 05:39:13 56.3347 12.1324 124° Southeast 508 585 35,000  Level FlightAware ADS-B
Fri 05:39:43 56.2963 12.2386 123° Southeast 504 580 35,000  Level FlightAware ADS-B
Fri 05:40:13 56.2566 12.3498 123° Southeast 504 580 35,000  Level FlightAware ADS-B
Fri 05:40:44 56.2200 12.4516 123° Southeast 505 581 35,000  Level FlightAware ADS-B
Fri 05:41:23 56.1690 12.5923 123° Southeast 505 581 35,000  Level FlightAware ADS-B
Fri 05:41:54 56.1285 12.7034 123° Southeast 505 581 35,000  Level FlightAware ADS-B
Fri 05:42:33 56.0800 12.8360 123° Southeast 505 581 35,000  Level FlightAware ADS-B
Fri 05:43:11 56.0310 12.9690 123° Southeast 505 581 35,000  Level FlightAware ADS-B
Fri 05:43:49 55.9810 13.1030 124° Southeast 504 580 35,000  Level FlightAware ADS-B
Fri 05:44:17 55.9460 13.1960 124° Southeast 505 581 35,000  Level FlightAware ADS-B
Fri 05:45:04 55.8860 13.3570 124° Southeast 506 582 35,000  Level FlightAware ADS-B
Fri 05:45:40 55.8380 13.4860 123° Southeast 505 581 35,000  Level FlightAware ADS-B
Fri 05:46:22 55.7850 13.6250 124° Southeast 504 580 35,000  Level FlightAware ADS-B
Fri 05:47:37 55.6862 13.8835 124° Southeast 503 579 35,000  Level FlightAware ADS-B
Fri 05:48:56 55.5821 14.1528 124° Southeast 502 578 35,000  Level FlightAware ADS-B
Fri 05:49:27 55.5421 14.2556 124° Southeast 500 575 35,000  Level FlightAware ADS-B
Fri 05:49:57 55.5029 14.3561 125° Southeast 500 575 35,000  Level FlightAware ADS-B
Fri 05:50:38 55.4487 14.4941 125° Southeast 499 574 35,000  Level FlightAware ADS-B
Fri 05:51:08 55.4099 14.5925 125° Southeast 499 574 35,000  Level FlightAware ADS-B
Fri 05:51:38 55.3702 14.6925 125° Southeast 499 574 35,000  Level FlightAware ADS-B
Fri 05:52:18 55.3187 14.8219 125° Southeast 493 567 35,000  Level FlightAware ADS-B
Fri 05:52:58 55.2668 14.9513 125° Southeast 479 551 35,000  Level FlightAware ADS-B
Fri 05:53:38 55.2171 15.0753 125° Southeast 479 551 35,000  Level FlightAware ADS-B
Fri 05:54:18 55.1642 15.2064 125° Southeast 481 554 35,000  Level FlightAware ADS-B
Fri 05:54:57 55.1142 15.3292 125° Southeast 480 552 35,000  Level FlightAware ADS-B
Fri 05:55:27 55.0784 15.4169 125° Southeast 477 549 35,000  Level FlightAware ADS-B
Fri 05:55:58 55.0398 15.5114 126° Southeast 475 547 35,000  Level FlightAware ADS-B
Fri 05:56:58 54.9623 15.6995 126° Southeast 472 543 35,000  Level FlightAware ADS-B
Fri 05:57:28 54.9237 15.7925 126° Southeast 469 540 35,000  Level FlightAware ADS-B
Fri 05:58:00 54.8818 15.8932 126° Southeast 467 537 35,000  Level FlightAware ADS-B
Fri 05:58:30 54.8452 15.9813 126° Southeast 469 540 35,000  Level FlightAware ADS-B
Fri 05:59:07 54.7971 16.0959 126° Southeast 468 539 35,000  Level FlightAware ADS-B
Fri 05:59:40 54.7557 16.1943 126° Southeast 468 539 35,000  Level FlightAware ADS-B
Fri 06:00:16 54.7100 16.3020 126° Southeast 470 541 35,000  Level FlightAware ADS-B
Fri 06:00:46 54.6720 16.3930 126° Southeast 470 541 35,000  Level FlightAware ADS-B
Fri 06:01:55 54.5820 16.6020 127° Southeast 474 545 35,000  Level FlightAware ADS-B
Fri 06:02:47 54.5160 16.7570 126° Southeast 475 547 35,000  Level FlightAware ADS-B
Fri 06:04:12 54.4040 17.0150 127° Southeast 479 551 35,000  Level FlightAware ADS-B
Fri 06:04:52 54.3520 17.1340 127° Southeast 480 552 35,000  Level FlightAware ADS-B
Fri 06:06:11 54.2436 17.3800 127° Southeast 484 557 35,000  Level FlightAware ADS-B (EPSY / SZY)
Fri 06:06:43 54.1997 17.4791 127° Southeast 488 562 35,000  Level FlightAware ADS-B (EPSY / SZY)
Fri 06:07:24 54.1462 17.5990 127° Southeast 488 562 35,000  Level FlightAware ADS-B (EPSY / SZY)
Fri 06:08:09 54.0863 17.7331 127° Southeast 487 560 35,000  Level FlightAware ADS-B (EPSY / SZY)
Fri 06:08:39 54.0417 17.8323 127° Southeast 489 563 35,000  Level FlightAware ADS-B (EPSY / SZY)
Fri 06:09:20 53.9854 17.9569 128° Southeast 494 568 35,000  Level FlightAware ADS-B (EPSY / SZY)
Fri 06:10:00 53.9286 18.0820 128° Southeast 499 574 35,000  Level FlightAware ADS-B (EPSY / SZY)
Fri 06:10:32 53.8851 18.1774 128° Southeast 502 578 35,000  Level FlightAware ADS-B (EPSY / SZY)
Fri 06:11:04 53.8416 18.2725 128° Southeast 505 581 35,000  Level FlightAware ADS-B (EPSY / SZY)
Fri 06:11:44 53.7826 18.4009 128° Southeast 512 589 35,000  Level FlightAware ADS-B (EPSY / SZY)
Fri 06:12:18 53.7325 18.5095 128° Southeast 509 586 35,000  Level FlightAware ADS-B (EPSY / SZY)
Fri 06:12:50 53.6870 18.6076 128° Southeast 499 574 35,000  Level FlightAware ADS-B (EPSY / SZY)
Fri 06:13:20 53.6442 18.6994 128° Southeast 497 572 35,000  Level FlightAware ADS-B (EPSY / SZY)
Fri 06:13:58 53.5895 18.8164 128° Southeast 508 585 35,000  Level FlightAware ADS-B (EPSY / SZY)
Fri 06:14:28 53.5457 18.9097 128° Southeast 507 583 35,000  Level FlightAware ADS-B (EPSY / SZY)
Fri 06:15:06 53.4908 19.0264 128° Southeast 507 583 35,000  Level FlightAware ADS-B (EPSY / SZY)
Fri 06:15:38 53.4441 19.1249 128° Southeast 510 587 35,000  Level FlightAware ADS-B (EPSY / SZY)
Fri 06:16:25 53.3748 19.2706 129° Southeast 515 593 35,000  Level FlightAware ADS-B (EPSY / SZY)
Fri 06:16:56 53.3288 19.3666 129° Southeast 514 592 35,000  Level FlightAware ADS-B (EPSY / SZY)
Fri 06:17:38 53.2684 19.4926 129° Southeast 511 588 35,000  Level FlightAware ADS-B (EPSY / SZY)
Fri 06:18:08 53.2280 19.5762 129° Southeast 506 582 35,000  Level FlightAware ADS-B (EPSY / SZY)
Fri 06:18:38 53.1792 19.6771 129° Southeast 504 580 35,000  Level FlightAware ADS-B (EPSY / SZY)
Fri 06:19:08 53.1375 19.7629 129° Southeast 502 578 35,000  Level FlightAware ADS-B (EPSY / SZY)
Fri 06:19:38 53.0929 19.8544 129° Southeast 502 578 35,000  Level FlightAware ADS-B (EPSY / SZY)
Fri 06:20:10 53.0449 19.9524 129° Southeast 503 579 35,000  Level FlightAware ADS-B (EPSY / SZY)
Fri 06:20:41 52.9994 20.0451 129° Southeast 500 575 35,000  Level FlightAware ADS-B (EPSY / SZY)
Fri 06:21:23 52.9398 20.1658 129° Southeast 500 575 35,000  Level FlightAware ADS-B (EPSY / SZY)
Fri 06:21:53 52.8944 20.2575 129° Southeast 502 578 35,000  Level FlightAware ADS-B (EPSY / SZY)
Fri 06:22:40 52.8276 20.3918 129° Southeast 502 578 35,000  Level FlightAware ADS-B (EPSY / SZY)
Fri 06:23:19 52.7676 20.5117 130° Southeast 501 577 35,000  Level FlightAware ADS-B (EPSY / SZY)
Fri 06:23:59 52.7077 20.6308 130° Southeast 499 574 35,000  Level FlightAware ADS-B (EPSY / SZY)
Fri 06:24:29 52.6654 20.7145 130° Southeast 496 571 35,000  Level FlightAware ADS-B (EPSY / SZY)
Fri 06:25:00 52.6193 20.8055 130° Southeast 494 568 35,000  Level FlightAware ADS-B (EPSY / SZY)
Fri 06:25:30 52.5754 20.8918 130° Southeast 496 571 35,000  Level FlightAware ADS-B (EPSY / SZY)
Fri 06:26:00 52.5322 20.9766 130° Southeast 498 573 35,000  Level FlightAware ADS-B (EPSY / SZY)
Fri 06:26:32 52.4839 21.0709 130° Southeast 501 577 35,000  Level FlightAware ADS-B (EPSY / SZY)
Fri 06:27:02 52.4388 21.1587 130° Southeast 503 579 35,000  Level FlightAware ADS-B (EPSY / SZY)
Fri 06:27:42 52.3800 21.2727 130° Southeast 505 581 35,000  Level FlightAware ADS-B (EPSY / SZY)
Fri 06:28:20 52.3223 21.3840 130° Southeast 503 579 35,000  Level FlightAware ADS-B (EPSY / SZY)
Fri 06:28:50 52.2793 21.4667 130° Southeast 505 581 35,000  Level FlightAware ADS-B (EPSY / SZY)
Fri 06:29:26 52.2218 21.5769 130° Southeast 506 582 35,000  Level FlightAware ADS-B (EPSY / SZY)
Fri 06:29:56 52.1771 21.6621 131° Southeast 508 585 35,000  Level FlightAware ADS-B (EPSY / SZY)
Fri 06:30:26 52.1310 21.7498 131° Southeast 509 586 35,000  Level FlightAware ADS-B (EPSY / SZY)
Fri 06:30:56 52.0843 21.8382 131° Southeast 511 588 35,000  Level FlightAware ADS-B (EPSY / SZY)
Fri 06:31:30 52.0316 21.9376 131° Southeast 513 590 35,000  Level FlightAware ADS-B (EPSY / SZY)
Fri 06:32:00 51.9862 22.0230 131° Southeast 512 589 35,000  Level FlightAware ADS-B (EPSY / SZY)
Fri 06:32:30 51.9391 22.1114 131° Southeast 510 587 35,000  Level FlightAware ADS-B (EPSY / SZY)
Fri 06:33:02 51.8919 22.1995 131° Southeast 504 580 35,000  Level FlightAware ADS-B (EPSY / SZY)
Fri 06:33:32 51.8447 22.2873 131° Southeast 505 581 35,000  Level FlightAware ADS-B (EPSY / SZY)
Fri 06:34:08 51.7910 22.3868 131° Southeast 503 579 35,000  Level FlightAware ADS-B (EGLW)
Fri 06:34:38 51.7474 22.4674 131° Southeast 503 579 35,000  Level FlightAware ADS-B (EGLW)
Fri 06:35:16 51.6902 22.5727 131° Southeast 503 579 35,000  Level FlightAware ADS-B (EGLW)
Fri 06:35:48 51.6405 22.6637 131° Southeast 505 581 35,000  Level FlightAware ADS-B (EGLW)
Fri 06:36:20 51.5906 22.7551 131° Southeast 503 579 35,000  Level FlightAware ADS-B (EGLW)
Fri 06:36:50 51.5441 22.8395 131° Southeast 501 577 35,000  Level FlightAware ADS-B (EGLW)
Fri 06:37:10 51.5135 22.8954 131° Southeast 501 577 35,000  Level FlightAware ADS-B (EGLW)
Fri 06:37:30 51.4817 22.9527 132° Southeast 501 577 35,000  Level FlightAware ADS-B (EGLW)
Fri 06:37:40 51.4672 22.9790 132° Southeast 501 577 35,000  Level FlightAware ADS-B (EGLW)
Fri 06:38:14 51.4137 23.0756 132° Southeast 503 579 35,000  Level FlightAware ADS-B (EGLW)
Fri 06:38:32 51.3831 23.1307 132° Southeast 506 582 35,000  Level FlightAware ADS-B (EPSY / SZY)
Fri 06:39:09 51.3269 23.2315 132° Southeast 506 582 35,000  Level FlightAware ADS-B (EPSY / SZY)
Fri 06:39:26 51.2995 23.2805 132° Southeast 506 582 35,000  Level FlightAware ADS-B (EPSY / SZY)
Fri 06:40:01 51.2530 23.3634 132° Southeast 503 579 35,000  Level FlightAware ADS-B (EPSY / SZY)
Fri 06:40:31 51.2002 23.4573 132° Southeast 497 572 35,000  Level FlightAware ADS-B (EGLW)
Fri 06:41:00 51.1811 23.4911 132° Southeast 499 574 35,000  Level FlightAware ADS-B (EPSY / SZY)
Fri 06:41:15 51.1811 23.4911 132° Southeast 498 573 35,000  Level FlightAware ADS-B (EPSY / SZY)
Fri 06:41:51 51.0768 23.6752 132° Southeast 495 570 35,000  Level FlightAware ADS-B (EGLW)
Fri 06:42:25 51.0261 23.7642 132° Southeast 495 570 35,000  Level FlightAware ADS-B (EGLW)
Fri 06:42:56 50.9796 23.8456 132° Southeast 495 570 35,000  Level FlightAware ADS-B (EGLW)
Fri 06:43:28 50.9317 23.9291 132° Southeast 496 571 35,000  Level FlightAware ADS-B (EGLW)
Fri 06:44:06 50.8713 24.0347 132° Southeast 496 571 35,000  Level FlightAware ADS-B (EGLW)
Fri 06:44:38 50.8257 24.1250 129° Southeast 496 571 35,000  Level FlightAware ADS-B (EGLW)
Fri 06:45:08 50.7887 24.2194 122° Southeast 496 571 35,000  Level FlightAware ADS-B (EGLW)
Fri 06:45:40 50.7535 24.3218 118° Southeast 493 567 35,000  Level FlightAware ADS-B (EGLW)
Fri 06:46:10 50.7206 24.4157 119° Southeast 492 566 35,000  Level FlightAware ADS-B (EGLW)
Fri 06:46:40 50.6853 24.5148 119° Southeast 492 566 35,000  Level FlightAware ADS-B (EGLW)
Fri 06:47:30 50.6310 24.6660 119° Southeast 493 567 35,000  Level FlightAware ADS-B
Fri 06:48:08 50.5880 24.7850 120° Southeast 494 568 35,000  Level FlightAware ADS-B
Fri 06:48:54 50.5340 24.9330 120° Southeast 496 571 35,000  Level FlightAware ADS-B
Fri 06:49:30 50.4930 25.0460 120° Southeast 498 573 35,000  Level FlightAware ADS-B
Fri 06:50:40 50.4120 25.2640 120° Southeast 496 571 35,000  Level FlightAware ADS-B
Fri 06:51:16 50.3710 25.3740 120° Southeast 497 572 35,000  Level FlightAware ADS-B
Fri 06:51:48 50.3340 25.4750 120° Southeast 496 571 35,000 188 Level FlightAware ADS-B
Fri 06:52:20 50.2980 25.5700 121° Southeast 494 568 35,200 529 Climbing FlightAware ADS-B
Fri 06:53:30 50.2170 25.7860 120° Southeast 495 570 35,900 566 Climbing FlightAware ADS-B
Fri 06:54:06 50.1740 25.8980 121° Southeast 495 570 36,200 529 Climbing FlightAware ADS-B
Fri 06:54:38 50.1370 25.9960 120° Southeast 499 574 36,500 469 Climbing FlightAware ADS-B
Fri 06:55:10 50.1020 26.0880 121° Southeast 503 579 36,700 462 Climbing FlightAware ADS-B
Fri 06:55:43 50.0610 26.1960 121° Southeast 503 579 37,000 247 Climbing FlightAware ADS-B
Fri 06:56:23 50.0130 26.3190 121° Southeast 501 577 37,000  Level FlightAware ADS-B
Fri 06:56:59 49.9700 26.4310 121° Southeast 502 578 37,000  Level FlightAware ADS-B
Fri 06:57:35 49.9270 26.5370 122° Southeast 500 575 37,000  Level FlightAware ADS-B
Fri 06:58:11 49.8830 26.6480 122° Southeast 500 575 37,000  Level FlightAware ADS-B
Fri 06:58:45 49.8410 26.7520 122° Southeast 499 574 37,000  Level FlightAware ADS-B
Fri 06:59:19 49.7980 26.8580 122° Southeast 498 573 37,000  Level FlightAware ADS-B
Fri 07:00:11 49.7360 27.0120 122° Southeast 488 562 37,000  Level FlightAware ADS-B
Fri 07:00:47 49.6930 27.1170 122° Southeast 485 558 37,000  Level FlightAware ADS-B
Fri 07:01:23 49.6490 27.2250 122° Southeast 487 560 37,000  Level FlightAware ADS-B
Fri 07:01:55 49.6110 27.3170 122° Southeast 488 562 37,000  Level FlightAware ADS-B
Fri 07:02:33 49.5650 27.4270 123° Southeast 489 563 37,000  Level FlightAware ADS-B
Fri 07:03:10 49.5210 27.5340 122° Southeast 489 563 37,000  Level FlightAware ADS-B
Fri 07:03:46 49.4770 27.6390 123° Southeast 491 565 37,000  Level FlightAware ADS-B
Fri 07:04:17 49.4380 27.7340 122° Southeast 491 565 37,000  Level FlightAware ADS-B
Fri 07:04:53 49.3940 27.8390 123° Southeast 489 563 37,000  Level FlightAware ADS-B
Fri 07:05:43 49.3340 27.9830 123° Southeast 484 557 37,000  Level FlightAware ADS-B
Fri 07:06:19 49.3060 28.0970 111° Southeast 481 554 37,000  Level FlightAware ADS-B
Fri 07:06:51 49.2830 28.2000 109° East 480 552 37,000  Level FlightAware ADS-B
Fri 07:07:29 49.2560 28.3200 109° East 478 550 37,000  Level FlightAware ADS-B
Fri 07:08:17 49.2210 28.4740 109° East 478 550 37,000  Level FlightAware ADS-B
Fri 07:08:53 49.1950 28.5900 109° East 481 554 37,000  Level FlightAware ADS-B
Fri 07:10:03 49.1440 28.8140 109° East 482 555 37,000  Level FlightAware ADS-B
Fri 07:10:37 49.1190 28.9240 109° East 484 557 37,000  Level FlightAware ADS-B
Fri 07:11:12 49.0960 29.0270 109° East 485 558 37,000  Level FlightAware ADS-B
Fri 07:12:01 49.0580 29.1870 110° East 488 562 37,000  Level FlightAware ADS-B
Fri 07:12:42 49.0270 29.3230 109° East 487 560 37,000  Level FlightAware ADS-B
Fri 07:13:23 48.9950 29.4560 110° East 485 558 37,000  Level FlightAware ADS-B
Fri 07:13:51 48.9730 29.5490 110° East 485 558 37,000  Level FlightAware ADS-B
Fri 07:14:22 48.9490 29.6510 110° East 487 560 37,000  Level FlightAware ADS-B
Fri 07:15:03 48.9180 29.7800 110° East 487 560 37,000  Level FlightAware ADS-B
Fri 07:15:43 48.8870 29.9070 110° East 486 559 37,000  Level FlightAware ADS-B
Fri 07:16:29 48.8520 30.0520 110° East 485 558 37,000  Level FlightAware ADS-B
Fri 07:17:05 48.8240 30.1670 110° East 486 559 37,000  Level FlightAware ADS-B
Fri 07:17:57 48.7830 30.3350 110° East 487 560 37,000  Level FlightAware ADS-B
Fri 07:18:41 48.7480 30.4760 111° Southeast 484 557 37,000  Level FlightAware ADS-B
Fri 07:19:35 48.7060 30.6470 110° East 485 558 37,000  Level FlightAware ADS-B
Fri 07:20:10 48.6800 30.7490 111° Southeast 486 559 37,000  Level FlightAware ADS-B
Fri 07:20:53 48.6440 30.8920 111° Southeast 484 557 37,000  Level FlightAware ADS-B
Fri 07:21:23 48.6210 30.9860 110° East 484 557 37,000  Level FlightAware ADS-B
Fri 07:22:30 48.5660 31.2010 111° Southeast 486 559 37,000  Level FlightAware ADS-B
Fri 07:23:05 48.5380 31.3110 111° Southeast 486 559 37,000  Level FlightAware ADS-B
Fri 07:24:05 48.4890 31.5010 111° Southeast 486 559 37,000  Level FlightAware ADS-B
Fri 07:24:52 48.4520 31.6420 112° Southeast 485 558 37,000  Level FlightAware ADS-B
Fri 07:25:38 48.4130 31.7920 111° Southeast 484 557 37,000  Level FlightAware ADS-B
Fri 07:26:34 48.3670 31.9670 112° Southeast 484 557 37,000  Level FlightAware ADS-B
Fri 07:27:17 48.3310 32.1030 112° Southeast 484 557 37,000  Level FlightAware ADS-B
Fri 07:27:54 48.3010 32.2140 112° Southeast 485 558 37,000  Level FlightAware ADS-B
Fri 07:28:45 48.2580 32.3760 112° Southeast 484 557 37,000  Level FlightAware ADS-B
Fri 07:29:45 48.2070 32.5620 112° Southeast 484 557 37,000  Level FlightAware ADS-B
Fri 07:30:15 48.1820 32.6560 112° Southeast 484 557 37,000  Level FlightAware ADS-B
Fri 07:31:06 48.1390 32.8110 113° Southeast 486 559 37,000  Level FlightAware ADS-B
Fri 07:31:42 48.1100 32.9170 112° Southeast 485 558 37,000  Level FlightAware ADS-B
Fri 07:32:20 48.0750 33.0430 113° Southeast 486 559 37,000  Level FlightAware ADS-B
Fri 07:33:00 48.0400 33.1630 114° Southeast 487 560 37,000  Level FlightAware ADS-B
Fri 07:33:35 48.0100 33.2700 113° Southeast 488 562 37,000  Level FlightAware ADS-B
Fri 07:34:25 47.9640 33.4280 113° Southeast 487 560 37,000  Level FlightAware ADS-B
Fri 07:34:55 47.9380 33.5190 113° Southeast 487 560 37,000  Level FlightAware ADS-B
Fri 07:36:05 47.8760 33.7320 113° Southeast 489 563 37,000  Level FlightAware ADS-B
Fri 07:36:50 47.8350 33.8700 114° Southeast 488 562 37,000  Level FlightAware ADS-B
Fri 07:37:33 47.7960 34.0010 114° Southeast 488 562 37,000  Level FlightAware ADS-B
Fri 07:38:20 47.7520 34.1490 114° Southeast 487 560 37,000  Level FlightAware ADS-B
Fri 07:39:04 47.7130 34.2820 114° Southeast 487 560 37,000  Level FlightAware ADS-B
Fri 07:39:45 47.6750 34.4070 114° Southeast 488 562 37,000  Level FlightAware ADS-B
Fri 07:40:54 47.6110 34.6180 114° Southeast 487 560 37,000  Level FlightAware ADS-B
Fri 07:41:31 47.5770 34.7310 114° Southeast 487 560 37,000  Level FlightAware ADS-B
Fri 07:41:59 47.5510 34.8170 114° Southeast 488 562 37,000  Level FlightAware ADS-B
Fri 07:42:47 47.5080 34.9570 114° Southeast 489 563 37,000  Level FlightAware ADS-B
Fri 07:43:27 47.4680 35.0840 115° Southeast 489 563 37,000  Level FlightAware ADS-B
Fri 07:44:00 47.4380 35.1830 114° Southeast 489 563 37,000  Level FlightAware ADS-B
Fri 07:44:39 47.4010 35.3020 115° Southeast 490 564 37,000  Level FlightAware ADS-B
Fri 07:45:21 47.3610 35.4290 115° Southeast 491 565 37,000  Level FlightAware ADS-B
Fri 07:45:57 47.3260 35.5390 115° Southeast 492 566 37,000  Level FlightAware ADS-B
Fri 07:47:13 47.2540 35.7680 115° Southeast 494 568 37,000  Level FlightAware ADS-B
Fri 07:47:56 47.2100 35.8990 116° Southeast 495 570 37,000  Level FlightAware ADS-B
Fri 07:48:42 47.1610 36.0360 118° Southeast 496 571 37,000  Level FlightAware ADS-B
Fri 07:49:13 47.1290 36.1260 118° Southeast 496 571 37,000  Level FlightAware ADS-B
Fri 07:49:54 47.0850 36.2480 118° Southeast 497 572 37,000  Level FlightAware ADS-B
Fri 07:50:28 47.0480 36.3520 118° Southeast 499 574 37,000  Level FlightAware ADS-B
Fri 07:51:05 47.0080 36.4630 118° Southeast 500 575 37,000  Level FlightAware ADS-B
Fri 07:51:37 46.9750 36.5570 117° Southeast 499 574 37,000  Level FlightAware ADS-B
Fri 07:52:20 46.9280 36.6870 118° Southeast 500 575 37,000  Level FlightAware ADS-B
Fri 07:53:02 46.8830 36.8100 118° Southeast 500 575 37,000  Level FlightAware ADS-B
Fri 07:53:37 46.8450 36.9140 118° Southeast 501 577 37,000  Level FlightAware ADS-B
Fri 07:54:13 46.8050 37.0230 118° Southeast 503 579 37,000  Level FlightAware ADS-B
Fri 07:54:42 46.7740 37.1080 118° Southeast 503 579 37,000  Level FlightAware ADS-B
Fri 07:55:19 46.7330 37.2200 118° Southeast 504 580 37,000  Level FlightAware ADS-B
Fri 07:55:46 46.7040 37.2990 118° Southeast 505 581 37,000  Level FlightAware ADS-B
Fri 07:56:23 46.6620 37.4120 118° Southeast 506 582 37,000  Level FlightAware ADS-B
Fri 07:57:02 46.6240 37.5330 115° Southeast 506 582 37,000  Level FlightAware ADS-B
Fri 07:57:43 46.5860 37.6600 113° Southeast 507 583 37,000  Level FlightAware ADS-B
Fri 07:58:14 46.5570 37.7560 114° Southeast 508 585 37,000  Level FlightAware ADS-B
Fri 07:58:51 46.5220 37.8710 114° Southeast 511 588 37,000  Level FlightAware ADS-B
Fri 07:59:34 46.4800 38.0060 114° Southeast 514 592 37,000  Level FlightAware ADS-B
Fri 08:00:11 46.4450 38.1210 114° Southeast 518 596 37,000  Level FlightAware ADS-B
Fri 08:00:43 46.4130 38.2230 114° Southeast 519 597 37,000  Level FlightAware ADS-B
Fri 08:01:23 46.3740 38.3500 114° Southeast 518 596 37,000  Level FlightAware ADS-B
Fri 08:02:25 46.3120 38.5450 115° Southeast 520 598 37,000  Level FlightAware ADS-B
Fri 08:03:04 46.2730 38.6700 114° Southeast 519 597 37,000  Level FlightAware ADS-B
Fri 08:03:45 46.2330 38.7950 115° Southeast 520 598 37,000  Level FlightAware ADS-B
Fri 08:04:33 46.1850 38.9480 114° Southeast 518 596 37,000  Level FlightAware ADS-B
Fri 08:05:03 46.1550 39.0430 114° Southeast 516 594 37,000  Level FlightAware ADS-B
Fri 08:05:40 46.1230 39.1610 111° Southeast 514 592 37,000  Level FlightAware ADS-B
Fri 08:06:13 46.0940 39.2630 112° Southeast 513 590 37,000  Level FlightAware ADS-B
Fri 08:06:58 46.0520 39.4080 113° Southeast 515 593 37,000  Level FlightAware ADS-B
Fri 08:07:34 46.0190 39.5210 113° Southeast 515 593 37,000  Level FlightAware ADS-B
Fri 08:08:09 45.9870 39.6320 112° Southeast 516 594 37,000  Level FlightAware ADS-B
Fri 08:08:51 45.9490 39.7610 113° Southeast 518 596 37,000  Level FlightAware ADS-B
Fri 08:09:23 45.9180 39.8670 113° Southeast 520 598 37,000  Level FlightAware ADS-B
Fri 08:10:13 45.8700 40.0270 113° Southeast 523 602 37,000  Level FlightAware ADS-B
Fri 08:10:48 45.8350 40.1340 115° Southeast 524 603 37,000  Level FlightAware ADS-B
Fri 08:11:07 45.8130 40.1920 119° Southeast 521 600 37,000  Level FlightAware ADS-B
Fri 08:12:03 45.7520 40.3620 117° Southeast 515 593 37,000  Level FlightAware ADS-B
Fri 08:12:31 45.7210 40.4450 118° Southeast 517 595 37,000  Level FlightAware ADS-B
Fri 08:13:35 45.6490 40.6400 118° Southeast 522 601 37,000  Level FlightAware ADS-B
Fri 08:14:27 45.5910 40.7960 118° Southeast 516 594 37,000  Level FlightAware ADS-B
Fri 08:15:11 45.5410 40.9290 118° Southeast 507 583 37,000  Level FlightAware ADS-B
Fri 08:15:51 45.4980 41.0420 118° Southeast 511 588 37,000  Level FlightAware ADS-B
Fri 08:16:40 45.4420 41.1890 118° Southeast 516 594 37,000  Level FlightAware ADS-B
Fri 08:17:13 45.4050 41.2870 118° Southeast 516 594 37,000  Level FlightAware ADS-B
Fri 08:17:57 45.3550 41.4170 119° Southeast 518 596 37,000  Level FlightAware ADS-B
Fri 08:18:42 45.3010 41.5580 119° Southeast 520 598 37,000  Level FlightAware ADS-B
Fri 08:19:13 45.2690 41.6520 116° Southeast 520 598 37,000  Level FlightAware ADS-B
Fri 08:20:04 45.2150 41.8100 116° Southeast 514 592 37,000  Level FlightAware ADS-B
Fri 08:20:37 45.1810 41.9070 116° Southeast 513 590 37,000  Level FlightAware ADS-B
Fri 08:21:12 45.1440 42.0140 116° Southeast 514 592 37,000  Level FlightAware ADS-B
Fri 08:21:47 45.1070 42.1170 117° Southeast 519 597 37,000  Level FlightAware ADS-B
Fri 08:22:23 45.0610 42.2220 122° Southeast 510 587 37,000  Level FlightAware ADS-B
Fri 08:23:02 45.0130 42.3340 121° Southeast 509 586 37,000  Level FlightAware ADS-B
Fri 08:24:02 44.9390 42.5080 121° Southeast 521 600 37,000  Level FlightAware ADS-B
Fri 08:24:30 44.9030 42.5890 122° Southeast 518 596 37,000  Level FlightAware ADS-B
Fri 08:24:49 44.8830 42.6350 122° Southeast 517 595 37,000  Level FlightAware ADS-B
Fri 08:25:45 44.8180 42.7860 121° Southeast 518 596 37,000  Level FlightAware ADS-B
Fri 08:26:23 44.7660 42.9050 122° Southeast 516 594 37,000  Level FlightAware ADS-B
Fri 08:27:13 44.7010 43.0520 122° Southeast 516 594 37,000  Level FlightAware ADS-B
Fri 08:27:43 44.6650 43.1390 120° Southeast 507 583 37,000  Level FlightAware ADS-B
Fri 08:28:14 44.6290 43.2280 120° Southeast 506 582 37,000  Level FlightAware ADS-B
Fri 08:28:47 44.6000 43.2970 121° Southeast 507 583 37,000  Level FlightAware ADS-B
Fri 08:29:38 44.5490 43.4210 120° Southeast 507 583 37,000  Level FlightAware ADS-B
Fri 08:30:08 44.4960 43.5440 121° Southeast 506 582 37,000  Level FlightAware ADS-B
Fri 08:30:58 44.4460 43.6650 120° Southeast 506 582 37,000  Level FlightAware ADS-B
Fri 08:31:36 44.3930 43.7950 120° Southeast 503 579 37,000  Level FlightAware ADS-B
Fri 08:32:10 44.3620 43.8740 119° Southeast 503 579 37,000  Level FlightAware ADS-B
Fri 08:32:58 44.3160 43.9910 119° Southeast 503 579 37,000  Level FlightAware ADS-B
Fri 08:33:34 44.2810 44.0780 119° Southeast 503 579 37,000  Level FlightAware ADS-B
Fri 08:34:22 44.2350 44.1940 119° Southeast 503 579 37,000  Level FlightAware ADS-B
Fri 08:34:58 44.2010 44.2800 119° Southeast 503 579 37,000  Level FlightAware ADS-B
Fri 08:35:46 44.1550 44.3960 119° Southeast 503 579 37,000  Level FlightAware ADS-B
Fri 08:36:34 44.1090 44.5120 119° Southeast 503 579 37,000  Level FlightAware ADS-B
Fri 08:37:23 44.0620 44.6300 119° Southeast 503 579 37,000  Level FlightAware ADS-B
Fri 08:37:47 44.0390 44.6880 119° Southeast 503 579 37,000  Level FlightAware ADS-B
Fri 08:39:05 43.8700 45.0880 120° Southeast 514 592 37,000  Level FlightAware ADS-B
Fri 08:39:49 43.8190 45.2160 119° Southeast 514 592 37,000  Level FlightAware ADS-B
Fri 08:40:19 43.7850 45.3030 118° Southeast 515 593 37,000  Level FlightAware ADS-B
Fri 08:41:24 43.7110 45.4890 119° Southeast 515 593 37,000  Level FlightAware ADS-B
Fri 08:42:03 43.6670 45.5990 119° Southeast 514 592 37,000  Level FlightAware ADS-B
Fri 08:42:46 43.6170 45.7260 119° Southeast 510 587 37,000  Level FlightAware ADS-B
Fri 08:43:19 43.5800 45.8180 119° Southeast 510 587 37,000  Level FlightAware ADS-B
Fri 08:43:58 43.5350 45.9280 119° Southeast 509 586 37,000  Level FlightAware ADS-B
Fri 08:44:26 43.5030 46.0080 119° Southeast 510 587 37,000  Level FlightAware ADS-B
Fri 08:44:57 43.4680 46.0950 119° Southeast 509 586 37,000  Level FlightAware ADS-B
Fri 08:45:51 43.4050 46.2480 120° Southeast 514 592 37,000  Level FlightAware ADS-B
Fri 08:46:30 43.3600 46.3580 119° Southeast 516 594 37,000  Level FlightAware ADS-B
Fri 08:47:07 43.3160 46.4640 120° Southeast 518 596 37,000  Level FlightAware ADS-B
Fri 08:47:39 43.2780 46.5560 120° Southeast 518 596 37,000  Level FlightAware ADS-B
Fri 08:48:11 43.2400 46.6490 119° Southeast 517 595 37,000  Level FlightAware ADS-B
Fri 08:48:55 43.1890 46.7710 120° Southeast 518 596 37,000  Level FlightAware ADS-B
Fri 08:49:28 43.1500 46.8650 120° Southeast 515 593 37,000  Level FlightAware ADS-B
Fri 08:50:08 43.1030 46.9790 119° Southeast 512 589 37,000  Level FlightAware ADS-B
Fri 08:50:48 43.0570 47.0890 120° Southeast 506 582 37,000  Level FlightAware ADS-B
Fri 08:51:26 43.0110 47.1970 120° Southeast 501 577 37,000  Level FlightAware ADS-B
Fri 08:52:12 42.9610 47.3160 120° Southeast 505 581 37,000  Level FlightAware ADS-B
Fri 08:53:13 42.8880 47.4880 120° Southeast 505 581 37,000  Level FlightAware ADS-B
Fri 08:53:39 42.8570 47.5590 121° Southeast 507 583 37,000  Level FlightAware ADS-B
Fri 08:54:27 42.8030 47.6940 119° Southeast 507 583 37,000  Level FlightAware ADS-B
Fri 08:55:12 42.7580 47.8240 115° Southeast 504 580 37,000  Level FlightAware ADS-B
Fri 08:55:55 42.7150 47.9470 115° Southeast 502 578 37,000  Level FlightAware ADS-B
Fri 08:56:40 42.6690 48.0780 115° Southeast 504 580 37,000  Level FlightAware ADS-B
Fri 08:57:37 42.6120 48.2390 116° Southeast 501 577 37,000  Level FlightAware ADS-B
Fri 08:58:20 42.5690 48.3590 116° Southeast 500 575 37,000  Level FlightAware ADS-B
Fri 08:58:57 42.5320 48.4640 116° Southeast 503 579 37,000  Level FlightAware ADS-B
Fri 08:59:40 42.4870 48.5870 116° Southeast 501 577 37,000  Level FlightAware ADS-B
Fri 09:00:13 42.4540 48.6810 115° Southeast 509 586 37,000  Level FlightAware ADS-B
Fri 09:00:59 42.4070 48.8090 116° Southeast 508 585 37,000  Level FlightAware ADS-B
Fri 09:01:34 42.3720 48.9060 116° Southeast 508 585 37,000  Level FlightAware ADS-B
Fri 09:02:33 42.3100 49.0760 116° Southeast 509 586 37,000  Level FlightAware ADS-B
Fri 09:03:04 42.2770 49.1650 117° Southeast 508 585 37,000  Level FlightAware ADS-B
Fri 09:03:39 42.2400 49.2670 116° Southeast 509 586 37,000  Level FlightAware ADS-B
Fri 09:04:20 42.1980 49.3770 117° Southeast 509 586 37,000  Level FlightAware ADS-B
Fri 09:04:59 42.1550 49.4900 117° Southeast 509 586 37,000  Level FlightAware ADS-B
Fri 09:05:41 42.1100 49.6080 117° Southeast 508 585 37,000  Level FlightAware ADS-B
Fri 09:06:26 42.0620 49.7320 118° Southeast 507 583 37,000  Level FlightAware ADS-B
Fri 09:06:56 42.0280 49.8200 117° Southeast 506 582 37,000  Level FlightAware ADS-B
Fri 09:07:37 41.9850 49.9320 117° Southeast 504 580 37,000  Level FlightAware ADS-B
Fri 09:08:14 41.9450 50.0350 118° Southeast 507 583 37,000  Level FlightAware ADS-B
Fri 09:08:44 41.9110 50.1220 118° Southeast 507 583 37,000  Level FlightAware ADS-B
Fri 09:09:21 41.8720 50.2220 118° Southeast 504 580 37,000  Level FlightAware ADS-B
Fri 09:10:04 41.8310 50.3290 117° Southeast 505 581 37,000  Level FlightAware ADS-B
Fri 09:10:35 41.7930 50.4240 118° Southeast 505 581 37,000  Level FlightAware ADS-B
Fri 09:11:20 41.7430 50.5510 118° Southeast 505 581 37,000  Level FlightAware ADS-B
Fri 09:11:33 41.7280 50.5870 119° Southeast 505 581 37,000  Level FlightAware ADS-B
Fri 09:12:43 41.6530 50.7760 118° Southeast 504 580 37,000  Level FlightAware ADS-B
Fri 09:13:20 41.6110 50.8800 118° Southeast 504 580 37,000  Level FlightAware ADS-B
Fri 09:13:54 41.5790 50.9600 118° Southeast 505 581 37,000  Level FlightAware ADS-B
Fri 09:14:35 41.5280 51.0870 118° Southeast 506 582 37,000  Level FlightAware ADS-B
Fri 09:15:11 41.4950 51.1700 118° Southeast 506 582 37,000  Level FlightAware ADS-B
Fri 09:15:47 41.4610 51.2540 118° Southeast 506 582 37,000  Level FlightAware ADS-B
Fri 09:16:14 41.4210 51.3510 119° Southeast 507 583 37,000  Level FlightAware ADS-B
Fri 09:17:15 41.3640 51.4940 118° Southeast 507 583 37,000  Level FlightAware ADS-B
Fri 09:17:51 41.3300 51.5780 118° Southeast 507 583 37,000  Level FlightAware ADS-B
Fri 09:18:27 41.2970 51.6620 118° Southeast 507 583 37,000  Level FlightAware ADS-B
Fri 09:18:58 41.2370 51.8030 119° Southeast 508 585 37,000  Level FlightAware ADS-B
Fri 09:19:47 41.1910 51.9180 118° Southeast 508 585 37,000  Level FlightAware ADS-B
Fri 09:20:23 41.1570 52.0020 118° Southeast 508 585 37,000  Level FlightAware ADS-B
Fri 09:20:59 41.1230 52.0860 118° Southeast 508 585 37,000  Level FlightAware ADS-B
Fri 09:21:47 41.0780 52.1990 118° Southeast 508 585 37,000  Level FlightAware ADS-B
Fri 09:22:24 41.0440 52.2850 118° Southeast 508 585 37,000  Level FlightAware ADS-B
Fri 09:23:01 41.0090 52.3720 118° Southeast 508 585 37,000  Level FlightAware ADS-B
Fri 09:23:37 40.9750 52.4560 118° Southeast 508 585 37,000  Level FlightAware ADS-B
Fri 09:24:13 40.9410 52.5400 118° Southeast 508 585 37,000  Level FlightAware ADS-B
Fri 09:24:49 40.9070 52.6240 118° Southeast 508 585 37,000  Level FlightAware ADS-B
Fri 09:25:25 40.8740 52.7080 117° Southeast 508 585 37,000  Level FlightAware ADS-B
Fri 09:26:02 40.8390 52.7940 118° Southeast 508 585 37,000  Level FlightAware ADS-B
Fri 09:26:24 40.8180 52.8460 118° Southeast 508 585 37,000  Level FlightAware ADS-B
Fri 09:27:00 40.7850 52.9300 117° Southeast 508 585 37,000  Level FlightAware ADS-B
Fri 09:27:37 40.7500 53.0160 118° Southeast 508 585 37,000  Level FlightAware ADS-B
Fri 09:28:13 40.7160 53.0990 118° Southeast 508 585 37,000  Level FlightAware ADS-B
Fri 09:28:50 40.6810 53.1860 118° Southeast 508 585 37,000 18 Level FlightAware ADS-B
Fri 09:32:00 40.4968 53.6600 117° Southeast  Level Estimated
Fri 09:33:00 40.4382 53.8092 117° Southeast  Level Estimated
Fri 09:34:00 40.3794 53.9580 117° Southeast  Level Estimated
Fri 09:35:00 40.3204 54.1067 117° Southeast  Level Estimated
Fri 09:36:00 40.2613 54.2550 118° Southeast  Level Estimated
Fri 09:37:00 40.2020 54.4031 118° Southeast  Level Estimated
Fri 09:38:00 40.1424 54.5510 118° Southeast  Level Estimated
Fri 09:39:00 40.0827 54.6986 118° Southeast  Level Estimated
Fri 09:40:00 40.0228 54.8459 118° Southeast  Level Estimated
Fri 09:41:00 39.9627 54.9930 118° Southeast  Level Estimated
Fri 09:42:00 39.9024 55.1398 118° Southeast  Level Estimated
Fri 09:43:00 39.8420 55.2863 118° Southeast  Level Estimated
Fri 09:44:00 39.7813 55.4326 118° Southeast  Level Estimated
Fri 09:45:00 39.7205 55.5786 118° Southeast  Level Estimated
Fri 09:46:00 39.6595 55.7244 118° Southeast  Level Estimated
Fri 09:47:00 39.5983 55.8699 119° Southeast  Level Estimated
Fri 09:48:00 39.5369 56.0152 119° Southeast  Level Estimated
Fri 09:49:00 39.4753 56.1602 119° Southeast  Level Estimated
Fri 09:50:00 39.4136 56.3049 119° Southeast  Level Estimated
Fri 09:51:00 39.3517 56.4494 119° Southeast  Level Estimated
Fri 09:52:00 39.2896 56.5937 119° Southeast  Level Estimated
Fri 09:53:00 39.2273 56.7377 119° Southeast  Level Estimated
Fri 09:54:00 39.1649 56.8814 119° Southeast  Level Estimated
Fri 09:55:00 39.1022 57.0248 119° Southeast  Level Estimated
Fri 09:56:00 39.0394 57.1680 119° Southeast  Level Estimated
Fri 09:57:00 38.9765 57.3110 120° Southeast  Level Estimated
Fri 09:58:00 38.9133 57.4537 120° Southeast  Level Estimated
Fri 09:59:00 38.8500 57.5962 120° Southeast  Level Estimated
Fri 10:00:00 38.7865 57.7384 120° Southeast  Level Estimated
Fri 10:01:00 38.7228 57.8803 120° Southeast  Level Estimated
Fri 10:02:00 38.6590 58.0220 120° Southeast  Level Estimated
Fri 10:03:00 38.5950 58.1634 120° Southeast  Level Estimated
Fri 10:04:00 38.5308 58.3046 120° Southeast  Level Estimated
Fri 10:05:00 38.4664 58.4455 120° Southeast  Level Estimated
Fri 10:06:00 38.4019 58.5862 120° Southeast  Level Estimated
Fri 10:07:00 38.3372 58.7267 120° Southeast  Level Estimated
Fri 10:08:00 38.2724 58.8668 120° Southeast  Level Estimated
Fri 10:09:00 38.2074 59.0068 121° Southeast  Level Estimated
Fri 10:10:00 38.1422 59.1464 121° Southeast  Level Estimated
Fri 10:11:00 38.0768 59.2859 121° Southeast  Level Estimated
Fri 10:12:00 38.0113 59.4250 121° Southeast  Level Estimated
Fri 10:13:00 37.9456 59.5640 121° Southeast  Level Estimated
Fri 10:14:00 37.8798 59.7027 121° Southeast  Level Estimated
Fri 10:15:00 37.8138 59.8411 121° Southeast  Level Estimated
Fri 10:16:00 37.7476 59.9793 121° Southeast  Level Estimated
Fri 10:17:00 37.6813 60.1172 121° Southeast  Level Estimated
Fri 10:18:00 37.6148 60.2549 121° Southeast  Level Estimated
Fri 10:19:00 37.5481 60.3924 121° Southeast  Level Estimated
Fri 10:20:00 37.4813 60.5296 122° Southeast  Level Estimated
Fri 10:21:00 37.4144 60.6665 122° Southeast  Level Estimated
Fri 10:22:00 37.3473 60.8032 122° Southeast  Level Estimated
Fri 10:23:00 37.2800 60.9397 122° Southeast  Level Estimated
Fri 10:24:00 37.2126 61.0759 122° Southeast  Level Estimated
Fri 10:25:00 37.1450 61.2119 122° Southeast  Level Estimated
Fri 10:26:00 37.0772 61.3476 122° Southeast  Level Estimated
Fri 10:27:00 37.0093 61.4831 122° Southeast  Level Estimated
Fri 10:28:00 36.9413 61.6184 122° Southeast  Level Estimated
Fri 10:29:00 36.8731 61.7534 122° Southeast  Level Estimated
Fri 10:30:00 36.8047 61.8882 122° Southeast  Level Estimated
Fri 10:31:00 36.7362 62.0227 122° Southeast  Level Estimated
Fri 10:32:00 36.6675 62.1570 122° Southeast  Level Estimated
Fri 10:33:00 36.5987 62.2910 123° Southeast  Level Estimated
Fri 10:34:00 36.5298 62.4248 123° Southeast  Level Estimated
Fri 10:35:00 36.4606 62.5584 123° Southeast  Level Estimated
Fri 10:36:00 36.3914 62.6917 123° Southeast  Level Estimated
Fri 10:37:00 36.3220 62.8248 123° Southeast  Level Estimated
Fri 10:38:00 36.2524 62.9577 123° Southeast  Level Estimated
Fri 10:39:00 36.1827 63.0903 123° Southeast  Level Estimated
Fri 10:40:00 36.1129 63.2227 123° Southeast  Level Estimated
Fri 10:41:00 36.0429 63.3548 123° Southeast  Level Estimated
Fri 10:42:00 35.9727 63.4868 123° Southeast  Level Estimated
Fri 10:43:00 35.9025 63.6184 123° Southeast  Level Estimated
Fri 10:44:00 35.8320 63.7499 123° Southeast  Level Estimated
Fri 10:45:00 35.7615 63.8811 124° Southeast  Level Estimated
Fri 10:46:00 35.6907 64.0121 124° Southeast  Level Estimated
Fri 10:47:00 35.6199 64.1428 124° Southeast  Level Estimated
Fri 10:48:00 35.5489 64.2733 124° Southeast  Level Estimated
Fri 10:49:00 35.4778 64.4036 124° Southeast  Level Estimated
Fri 10:50:00 35.4065 64.5337 124° Southeast  Level Estimated
Fri 10:51:00 35.3351 64.6635 124° Southeast  Level Estimated
Fri 10:52:00 35.2635 64.7931 124° Southeast  Level Estimated
Fri 10:53:00 35.1918 64.9224 124° Southeast  Level Estimated
Fri 10:54:00 35.1200 65.0516 124° Southeast  Level Estimated
Fri 10:55:00 35.0481 65.1805 124° Southeast  Level Estimated
Fri 10:56:00 34.9760 65.3092 124° Southeast  Level Estimated
Fri 10:57:00 34.9037 65.4376 124° Southeast  Level Estimated
Fri 10:58:00 34.8314 65.5658 124° Southeast  Level Estimated
Fri 10:59:00 34.7589 65.6938 125° Southeast  Level Estimated
Fri 11:00:00 34.6862 65.8216 125° Southeast  Level Estimated
Fri 11:01:00 34.6134 65.9492 125° Southeast  Level Estimated
Fri 11:02:00 34.5406 66.0765 125° Southeast  Level Estimated
Fri 11:03:00 34.4675 66.2036 125° Southeast  Level Estimated
Fri 11:04:00 34.3943 66.3305 125° Southeast  Level Estimated
Fri 11:05:00 34.3210 66.4572 125° Southeast  Level Estimated
Fri 11:06:00 34.2476 66.5836 125° Southeast  Level Estimated
Fri 11:07:00 34.1740 66.7098 125° Southeast  Level Estimated
Fri 11:08:00 34.1004 66.8358 125° Southeast  Level Estimated
Fri 11:09:00 34.0266 66.9616 125° Southeast  Level Estimated
Fri 11:10:00 33.9526 67.0872 125° Southeast  Level Estimated
Fri 11:11:00 33.8785 67.2125 125° Southeast  Level Estimated
Fri 11:12:00 33.8043 67.3376 125° Southeast  Level Estimated
Fri 11:13:00 33.7300 67.4626 126° Southeast  Level Estimated
Fri 11:14:00 33.6556 67.5872 126° Southeast  Level Estimated
Fri 11:15:00 33.5810 67.7117 126° Southeast  Level Estimated
Fri 11:16:00 33.5063 67.8360 126° Southeast  Level Estimated
Fri 11:17:00 33.4315 67.9600 126° Southeast  Level Estimated
Fri 11:18:00 33.3565 68.0839 126° Southeast  Level Estimated
Fri 11:18:23 31.9710 68.5730 126° Southeast 483 556 39,000  Level FlightAware ADS-B
Fri 11:19:00 33.2815 68.2075 126° Southeast  Level Estimated
Fri 11:19:01 31.9150 68.6520 130° Southeast 487 560 39,000  Level FlightAware ADS-B
Fri 11:19:35 31.8670 68.7190 130° Southeast 485 558 39,000  Level FlightAware ADS-B
Fri 11:20:37 31.7790 68.8430 130° Southeast 484 557 39,000  Level FlightAware ADS-B
Fri 11:21:09 31.7330 68.9070 130° Southeast 485 558 39,000  Level FlightAware ADS-B
Fri 11:21:36 31.6940 68.9620 130° Southeast 489 563 39,000  Level FlightAware ADS-B
Fri 11:22:29 31.6170 69.0720 129° Southeast 486 559 39,000  Level FlightAware ADS-B
Fri 11:23:09 31.5610 69.1550 128° Southeast 488 562 39,000  Level FlightAware ADS-B
Fri 11:23:46 31.5110 69.2310 128° Southeast 486 559 39,000  Level FlightAware ADS-B
Fri 11:24:23 31.4590 69.3080 128° Southeast 486 559 39,000  Level FlightAware ADS-B
Fri 11:25:08 31.3920 69.3960 132° Southeast 477 549 39,000  Level FlightAware ADS-B
Fri 11:25:47 31.3250 69.4580 142° Southeast 476 548 39,000  Level FlightAware ADS-B
Fri 11:26:22 31.2640 69.5180 140° Southeast 478 550 39,000  Level FlightAware ADS-B
Fri 11:26:59 31.2030 69.5780 140° Southeast 482 555 39,000  Level FlightAware ADS-B
Fri 11:27:39 31.1350 69.6450 140° Southeast 487 560 39,000  Level FlightAware ADS-B
Fri 11:28:22 31.0580 69.7200 140° Southeast 487 560 39,000  Level FlightAware ADS-B
Fri 11:29:22 30.9550 69.8200 140° Southeast 484 557 39,000  Level FlightAware ADS-B
Fri 11:30:02 30.8850 69.8870 141° Southeast 481 554 39,000  Level FlightAware ADS-B
Fri 11:30:40 30.8200 69.9500 140° Southeast 484 557 39,000  Level FlightAware ADS-B
Fri 11:31:22 30.7490 70.0180 141° Southeast 486 559 39,000  Level FlightAware ADS-B
Fri 11:32:01 30.6820 70.0820 141° Southeast 485 558 39,000  Level FlightAware ADS-B
Fri 11:32:38 30.6170 70.1440 141° Southeast 485 558 39,000  Level FlightAware ADS-B
Fri 11:33:15 30.5530 70.2050 141° Southeast 489 563 39,000  Level FlightAware ADS-B
Fri 11:33:48 30.4940 70.2620 140° Southeast 489 563 39,000  Level FlightAware ADS-B
Fri 11:34:27 30.4260 70.3270 140° Southeast 490 564 39,000  Level FlightAware ADS-B
Fri 11:35:01 30.3660 70.3840 141° Southeast 487 560 39,000  Level FlightAware ADS-B
Fri 11:36:11 30.2440 70.5000 141° Southeast 487 560 39,000  Level FlightAware ADS-B
Fri 11:36:47 30.1820 70.5590 141° Southeast 488 562 39,000  Level FlightAware ADS-B
Fri 11:37:34 30.1010 70.6350 141° Southeast 489 563 39,000  Level FlightAware ADS-B
Fri 11:38:05 30.0450 70.6880 141° Southeast 489 563 39,000  Level FlightAware ADS-B
Fri 11:38:47 29.9710 70.7580 141° Southeast 488 562 39,000  Level FlightAware ADS-B
Fri 11:39:27 29.9010 70.8240 141° Southeast 488 562 39,000  Level FlightAware ADS-B
Fri 11:40:00 29.8450 70.8770 141° Southeast 487 560 39,000  Level FlightAware ADS-B
Fri 11:40:35 29.7830 70.9350 141° Southeast 486 559 39,000  Level FlightAware ADS-B
Fri 11:41:53 29.6470 71.0630 141° Southeast 488 562 39,000  Level FlightAware ADS-B
Fri 11:42:32 29.5830 71.1300 138° Southeast 489 563 39,000  Level FlightAware ADS-B
Fri 11:43:13 29.5130 71.2020 138° Southeast 487 560 39,000  Level FlightAware ADS-B
Fri 11:43:53 29.4460 71.2710 138° Southeast 487 560 39,000  Level FlightAware ADS-B
Fri 11:44:43 29.3610 71.3570 139° Southeast 485 558 39,000  Level FlightAware ADS-B
Fri 11:45:19 29.3000 71.4180 139° Southeast 487 560 39,000  Level FlightAware ADS-B
Fri 11:46:03 29.2260 71.4940 138° Southeast 487 560 39,000  Level FlightAware ADS-B
Fri 11:46:40 29.1670 71.5550 138° Southeast 485 558 39,000  Level FlightAware ADS-B
Fri 11:47:11 29.1140 71.6090 138° Southeast 485 558 39,000  Level FlightAware ADS-B
Fri 11:47:55 29.0420 71.6820 138° Southeast 484 557 39,000  Level FlightAware ADS-B
Fri 11:48:39 28.9660 71.7590 138° Southeast 483 556 39,000  Level FlightAware ADS-B
Fri 11:49:15 28.9050 71.8210 138° Southeast 483 556 39,000  Level FlightAware ADS-B
Fri 11:49:48 28.8600 71.8670 138° Southeast 484 557 39,000  Level FlightAware ADS-B
Fri 11:50:36 28.7920 71.9370 138° Southeast 484 557 39,000  Level FlightAware ADS-B
Fri 11:51:01 28.7570 71.9730 138° Southeast 484 557 39,000  Level FlightAware ADS-B
Fri 11:51:37 28.7060 72.0250 138° Southeast 484 557 39,000  Level FlightAware ADS-B
Fri 11:52:12 28.6110 72.1180 139° Southeast 486 559 39,000  Level FlightAware ADS-B
Fri 11:52:56 28.5370 72.1950 138° Southeast 493 567 39,000  Level FlightAware ADS-B
Fri 11:53:37 28.4740 72.2780 131° Southeast 504 580 39,000  Level FlightAware ADS-B
Fri 11:54:07 28.4360 72.3450 123° Southeast 508 585 39,000  Level FlightAware ADS-B
Fri 11:54:45 28.3940 72.4350 118° Southeast 511 588 39,000  Level FlightAware ADS-B
Fri 11:55:17 28.3650 72.5000 117° Southeast 511 588 39,000  Level FlightAware ADS-B
Fri 11:55:53 28.3200 72.5960 118° Southeast 508 585 39,000  Level FlightAware ADS-B
Fri 11:56:29 28.2820 72.6770 118° Southeast 508 585 39,000  Level FlightAware ADS-B
Fri 11:57:10 28.2360 72.7760 118° Southeast 509 586 39,000  Level FlightAware ADS-B
Fri 11:57:51 28.1930 72.8680 118° Southeast 510 587 39,000  Level FlightAware ADS-B
Fri 11:58:23 28.1540 72.9500 118° Southeast 509 586 39,000  Level FlightAware ADS-B
Fri 11:59:03 28.1120 73.0390 118° Southeast 510 587 39,000  Level FlightAware ADS-B
Fri 11:59:39 28.0710 73.1270 118° Southeast 512 589 39,000  Level FlightAware ADS-B
Fri 12:00:16 28.0310 73.2130 118° Southeast 513 590 39,000  Level FlightAware ADS-B
Fri 12:00:36 28.0080 73.2610 118° Southeast 512 589 39,000  Level FlightAware ADS-B
Fri 12:01:18 27.9600 73.3630 118° Southeast 512 589 39,000  Level FlightAware ADS-B
Fri 12:01:55 27.9250 73.4370 118° Southeast 512 589 39,000  Level FlightAware ADS-B
Fri 12:02:43 27.8790 73.5340 118° Southeast 512 589 39,000  Level FlightAware ADS-B
Fri 12:03:19 27.8450 73.6060 118° Southeast 512 589 39,000  Level FlightAware ADS-B
Fri 12:03:56 27.8100 73.6800 118° Southeast 512 589 39,000  Level FlightAware ADS-B
Fri 12:04:34 27.7740 73.7570 118° Southeast 512 589 39,000  Level FlightAware ADS-B
Fri 12:05:09 27.7410 73.8270 118° Southeast 512 589 39,000  Level FlightAware ADS-B
Fri 12:05:46 27.7060 73.9010 118° Southeast 512 589 39,000  Level FlightAware ADS-B
Fri 12:06:24 27.6280 74.0760 117° Southeast 39,000  Level FlightAware ADS-B
Fri 12:06:56 27.5940 74.1520 117° Southeast 514 592 39,000  Level FlightAware ADS-B
Fri 12:07:55 27.5300 74.2950 117° Southeast 514 592 39,000  Level FlightAware ADS-B
Fri 12:08:50 27.4660 74.4370 117° Southeast 513 590 39,000  Level FlightAware ADS-B
Fri 12:09:33 27.4200 74.5400 117° Southeast 513 590 39,000  Level FlightAware ADS-B
Fri 12:10:12 27.3780 74.6320 117° Southeast 514 592 39,000  Level FlightAware ADS-B
Fri 12:10:59 27.3270 74.7450 117° Southeast 515 593 39,000  Level FlightAware ADS-B
Fri 12:11:49 27.2730 74.8640 117° Southeast 516 594 39,000  Level FlightAware ADS-B
Fri 12:12:17 27.2420 74.9320 117° Southeast 519 597 39,000  Level FlightAware ADS-B
Fri 12:12:56 27.2000 75.0240 117° Southeast 516 594 39,000  Level FlightAware ADS-B
Fri 12:13:33 27.1600 75.1130 117° Southeast 515 593 39,000  Level FlightAware ADS-B
Fri 12:14:39 27.0880 75.2700 117° Southeast 515 593 39,000  Level FlightAware ADS-B
Fri 12:15:17 27.0460 75.3610 117° Southeast 516 594 39,000  Level FlightAware ADS-B
Fri 12:16:13 26.9850 75.4940 117° Southeast 518 596 39,000  Level FlightAware ADS-B
Fri 12:16:49 26.9450 75.5810 117° Southeast 523 602 39,000  Level FlightAware ADS-B
Fri 12:17:25 26.9060 75.6660 117° Southeast 525 604 39,000  Level FlightAware ADS-B
Fri 12:18:13 26.8520 75.7830 117° Southeast 526 605 39,000  Level FlightAware ADS-B
Fri 12:18:57 26.8020 75.8890 118° Southeast 522 601 39,000  Level FlightAware ADS-B
Fri 12:19:31 26.7600 75.9690 120° Southeast 521 600 39,000  Level FlightAware ADS-B
Fri 12:20:04 26.7210 76.0440 120° Southeast 523 602 39,000  Level FlightAware ADS-B
Fri 12:20:41 26.6780 76.1290 120° Southeast 524 603 39,000  Level FlightAware ADS-B
Fri 12:21:42 26.6080 76.2660 120° Southeast 525 604 39,000 59 Level FlightAware ADS-B
Fri 12:22:22 26.5540 76.3700 120° Southeast 523 602 39,100 375 Climbing FlightAware ADS-B
Fri 12:23:02 26.5060 76.4630 120° Southeast 516 594 39,500 592 Climbing FlightAware ADS-B
Fri 12:23:33 26.4710 76.5320 120° Southeast 508 585 39,800 500 Climbing FlightAware ADS-B
Fri 12:24:02 26.4370 76.5990 120° Southeast 507 583 40,000 507 Climbing FlightAware ADS-B
Fri 12:24:44 26.3920 76.6960 117° Southeast 504 580 40,400 568 Climbing FlightAware ADS-B
Fri 12:25:16 26.3560 76.7710 118° Southeast 507 583 40,700 529 Climbing FlightAware ADS-B
Fri 12:25:52 26.3170 76.8530 118° Southeast 506 582 41,000 265 Climbing FlightAware ADS-B
Fri 12:26:24 26.2820 76.9260 118° Southeast 504 580 41,000  Level FlightAware ADS-B
Fri 12:27:02 26.2390 77.0130 119° Southeast 505 581 41,000  Level FlightAware ADS-B
Fri 12:27:46 26.1910 77.1140 118° Southeast 506 582 41,000  Level FlightAware ADS-B
Fri 12:28:34 26.1380 77.2240 118° Southeast 506 582 41,000  Level FlightAware ADS-B
Fri 12:29:00 26.1080 77.2840 119° Southeast 504 580 41,000  Level FlightAware ADS-B
Fri 12:29:33 26.0720 77.3580 118° Southeast 506 582 41,000  Level FlightAware ADS-B
Fri 12:30:18 26.0220 77.4610 118° Southeast 506 582 41,000  Level FlightAware ADS-B
Fri 12:30:46 25.9910 77.5250 118° Southeast 503 579 41,000  Level FlightAware ADS-B
Fri 12:31:52 25.9170 77.6750 119° Southeast 508 585 41,000  Level FlightAware ADS-B
Fri 12:32:30 25.8740 77.7630 118° Southeast 506 582 41,000  Level FlightAware ADS-B
Fri 12:33:14 25.8250 77.8630 119° Southeast 502 578 41,000  Level FlightAware ADS-B
Fri 12:33:32 25.8060 77.9000 120° Southeast 502 578 41,000  Level FlightAware ADS-B
Fri 12:34:24 25.7580 78.0010 118° Southeast 502 578 41,000  Level FlightAware ADS-B
Fri 12:35:23 25.7030 78.1150 118° Southeast 502 578 41,000  Level FlightAware ADS-B
Fri 12:35:55 25.6440 78.2280 120° Southeast 509 586 41,000  Level FlightAware ADS-B
Fri 12:36:33 25.6080 78.3020 118° Southeast 509 586 41,000  Level FlightAware ADS-B
Fri 12:37:17 25.5510 78.4160 119° Southeast 515 593 41,000  Level FlightAware ADS-B
Fri 12:37:50 25.5130 78.4930 119° Southeast 511 588 41,000  Level FlightAware ADS-B
Fri 12:38:27 25.4700 78.5800 119° Southeast 510 587 41,000  Level FlightAware ADS-B
Fri 12:39:25 25.4150 78.6930 118° Southeast 511 588 41,000  Level FlightAware ADS-B
Fri 12:40:21 25.3320 78.8310 124° Southeast 502 578 41,000  Level FlightAware ADS-B
Fri 12:40:53 25.2890 78.8980 125° Southeast 504 580 41,000  Level FlightAware ADS-B
Fri 12:41:33 25.2340 78.9810 126° Southeast 504 580 41,000  Level FlightAware ADS-B
Fri 12:42:09 25.1850 79.0550 126° Southeast 504 580 41,000  Level FlightAware ADS-B
Fri 12:43:05 25.1140 79.1640 126° Southeast 504 580 41,000  Level FlightAware ADS-B
Fri 12:43:41 25.0730 79.2290 125° Southeast 504 580 41,000  Level FlightAware ADS-B
Fri 12:44:06 25.0450 79.2740 124° Southeast 504 580 41,000  Level FlightAware ADS-B
Fri 12:44:40 25.0060 79.3350 125° Southeast 504 580 41,000  Level FlightAware ADS-B
Fri 12:45:05 24.9780 79.3790 125° Southeast 504 580 41,000  Level FlightAware ADS-B
Fri 12:45:41 24.9370 79.4440 125° Southeast 504 580 41,000  Level FlightAware ADS-B
Fri 12:46:29 24.8820 79.5300 125° Southeast 504 580 41,000  Level FlightAware ADS-B
Fri 12:47:05 24.8410 79.5940 125° Southeast 504 580 41,000  Level FlightAware ADS-B
Fri 12:47:41 24.8000 79.6590 125° Southeast 504 580 41,000  Level FlightAware ADS-B
Fri 12:48:17 24.7590 79.7230 125° Southeast 504 580 41,000  Level FlightAware ADS-B
Fri 12:48:53 24.7180 79.7870 125° Southeast 504 580 41,000  Level FlightAware ADS-B
Fri 12:49:29 24.6770 79.8520 125° Southeast 504 580 41,000  Level FlightAware ADS-B
Fri 12:50:05 24.6360 79.9160 125° Southeast 504 580 41,000  Level FlightAware ADS-B
Fri 12:50:41 24.5960 79.9800 124° Southeast 504 580 41,000  Level FlightAware ADS-B
Fri 12:51:16 24.5560 80.0430 125° Southeast 504 580 41,000  Level FlightAware ADS-B
Fri 12:51:40 24.5280 80.0860 126° Southeast 504 580 41,000  Level FlightAware ADS-B
Fri 12:52:28 24.4740 80.1710 125° Southeast 504 580 41,000  Level FlightAware ADS-B
Fri 12:55:00 24.2593 80.4367 132° Southeast  Level Estimated
Fri 12:56:00 24.1745 80.5413 132° Southeast  Level Estimated
Fri 12:57:00 24.0896 80.6458 132° Southeast  Level Estimated
Fri 12:58:00 24.0046 80.7502 132° Southeast  Level Estimated
Fri 12:59:00 23.9195 80.8544 132° Southeast  Level Estimated
Fri 13:00:00 23.8343 80.9585 132° Southeast  Level Estimated
Fri 13:01:00 23.7491 81.0624 132° Southeast  Level Estimated
Fri 13:02:00 23.6639 81.1662 132° Southeast  Level Estimated
Fri 13:03:00 23.5785 81.2699 132° Southeast  Level Estimated
Fri 13:04:00 23.4931 81.3734 132° Southeast  Level Estimated
Fri 13:05:00 23.4076 81.4768 132° Southeast  Level Estimated
Fri 13:05:03 23.2900 81.8470 132° Southeast 489 563 41,000  Level FlightAware ADS-B
Fri 13:05:25 23.2610 81.8880 128° Southeast 488 562 41,000  Level FlightAware ADS-B
Fri 13:06:05 23.2070 81.9650 127° Southeast 484 557 41,000  Level FlightAware ADS-B
Fri 13:06:21 23.1840 81.9980 127° Southeast 484 557 41,000  Level FlightAware ADS-B
Fri 13:07:10 23.1280 82.0790 127° Southeast 484 557 41,000  Level FlightAware ADS-B
Fri 13:07:46 23.0870 82.1380 127° Southeast 484 557 41,000  Level FlightAware ADS-B
Fri 13:08:20 23.0260 82.2210 129° Southeast 476 548 41,000  Level FlightAware ADS-B
Fri 13:08:53 22.9770 82.2850 130° Southeast 477 549 41,000  Level FlightAware ADS-B
Fri 13:09:24 22.9420 82.3320 129° Southeast 478 550 41,000  Level FlightAware ADS-B
Fri 13:10:03 22.8780 82.4150 130° Southeast 479 551 41,000  Level FlightAware ADS-B
Fri 13:10:22 22.8570 82.4430 129° Southeast 479 551 41,000  Level FlightAware ADS-B
Fri 13:11:16 22.7930 82.5290 129° Southeast 479 551 41,000  Level FlightAware ADS-B
Fri 13:11:43 22.7380 82.6000 130° Southeast 476 548 41,000  Level FlightAware ADS-B
Fri 13:12:23 22.6800 82.6750 130° Southeast 476 548 41,000  Level FlightAware ADS-B
Fri 13:12:55 22.6380 82.7320 129° Southeast 477 549 41,000  Level FlightAware ADS-B
Fri 13:13:23 22.6050 82.7760 129° Southeast 477 549 41,000  Level FlightAware ADS-B
Fri 13:14:24 22.5210 82.8850 130° Southeast 478 550 41,000  Level FlightAware ADS-B
Fri 13:15:03 22.4580 82.9670 130° Southeast 480 552 41,000  Level FlightAware ADS-B
Fri 13:15:43 22.3990 83.0440 130° Southeast 479 551 41,000  Level FlightAware ADS-B
Fri 13:16:17 22.3510 83.1060 130° Southeast 479 551 41,000  Level FlightAware ADS-B
Fri 13:16:49 22.3060 83.1650 129° Southeast 479 551 41,000  Level FlightAware ADS-B
Fri 13:18:00 22.2040 83.2970 130° Southeast 486 559 41,000  Level FlightAware ADS-B
Fri 13:18:35 22.1550 83.3620 129° Southeast 486 559 41,000  Level FlightAware ADS-B
Fri 13:19:07 22.1080 83.4230 130° Southeast 488 562 41,000  Level FlightAware ADS-B
Fri 13:19:47 22.0500 83.4990 129° Southeast 489 563 41,000  Level FlightAware ADS-B
Fri 13:20:27 21.9940 83.5730 129° Southeast 490 564 41,000  Level FlightAware ADS-B
Fri 13:21:03 21.9410 83.6420 130° Southeast 488 562 41,000  Level FlightAware ADS-B
Fri 13:21:33 21.8990 83.6970 129° Southeast 485 558 41,000  Level FlightAware ADS-B
Fri 13:22:29 21.8180 83.8000 130° Southeast 482 555 41,000  Level FlightAware ADS-B
Fri 13:23:33 21.7190 83.9130 133° Southeast 483 556 41,000  Level FlightAware ADS-B
Fri 13:24:11 21.6630 83.9780 133° Southeast 482 555 41,000  Level FlightAware ADS-B
Fri 13:25:01 21.5860 84.0670 133° Southeast 482 555 41,000  Level FlightAware ADS-B
Fri 13:25:33 21.5370 84.1230 133° Southeast 482 555 41,000  Level FlightAware ADS-B
Fri 13:26:11 21.4800 84.1900 132° Southeast 482 555 41,000  Level FlightAware ADS-B
Fri 13:26:51 21.4190 84.2600 133° Southeast 482 555 41,000  Level FlightAware ADS-B
Fri 13:27:35 21.3510 84.3370 133° Southeast 484 557 41,000  Level FlightAware ADS-B
Fri 13:28:05 21.3060 84.3900 132° Southeast 484 557 41,000  Level FlightAware ADS-B
Fri 13:28:41 21.2500 84.4530 134° Southeast 484 557 41,000  Level FlightAware ADS-B
Fri 13:29:11 21.2050 84.5050 133° Southeast 484 557 41,000  Level FlightAware ADS-B
Fri 13:29:51 21.1430 84.5760 133° Southeast 484 557 41,000  Level FlightAware ADS-B
Fri 13:30:27 21.0880 84.6390 133° Southeast 484 557 41,000  Level FlightAware ADS-B
Fri 13:31:03 21.0330 84.7020 133° Southeast 483 556 41,000  Level FlightAware ADS-B
Fri 13:31:35 20.9840 84.7580 133° Southeast 483 556 41,000  Level FlightAware ADS-B
Fri 13:31:59 20.9480 84.7990 133° Southeast 483 556 41,000  Level FlightAware ADS-B
Fri 13:32:49 20.8850 84.8750 132° Southeast 483 556 41,000  Level FlightAware ADS-B
Fri 13:33:25 20.8390 84.9290 132° Southeast 483 556 41,000  Level FlightAware ADS-B
Fri 13:34:02 20.7920 84.9850 132° Southeast 483 556 41,000  Level FlightAware ADS-B
Fri 13:34:50 20.7310 85.0570 132° Southeast 483 556 41,000  Level FlightAware ADS-B
Fri 13:35:26 20.6850 85.1120 132° Southeast 483 556 41,000  Level FlightAware ADS-B
Fri 13:36:03 20.6380 85.1670 132° Southeast 483 556 41,000  Level FlightAware ADS-B
Fri 13:36:40 20.5910 85.2230 132° Southeast 483 556 41,000  Level FlightAware ADS-B
Fri 13:37:16 20.5450 85.2770 132° Southeast 483 556 41,000  Level FlightAware ADS-B
Fri 13:37:52 20.4990 85.3320 132° Southeast 483 556 41,000  Level FlightAware ADS-B
Fri 13:38:17 20.4680 85.3690 132° Southeast 483 556 41,000  Level FlightAware ADS-B
Fri 13:39:29 20.2720 85.5650 137° Southeast 473 544 41,000  Level FlightAware ADS-B
Fri 13:40:18 20.2100 85.6360 133° Southeast 473 544 41,000  Level FlightAware ADS-B
Fri 13:40:42 20.1800 85.6710 132° Southeast 473 544 41,000  Level FlightAware ADS-B
Fri 13:41:18 20.1340 85.7230 133° Southeast 473 544 41,000  Level FlightAware ADS-B
Fri 13:41:54 20.0880 85.7750 133° Southeast 473 544 41,000  Level FlightAware ADS-B
Fri 13:42:30 20.0430 85.8270 133° Southeast 473 544 41,000  Level FlightAware ADS-B
Fri 13:43:43 19.9500 85.9330 133° Southeast 473 544 41,000  Level FlightAware ADS-B
Fri 13:44:05 19.9220 85.9650 133° Southeast 473 544 41,000  Level FlightAware ADS-B
Fri 13:44:56 19.8570 86.0380 133° Southeast 473 544 41,000  Level FlightAware ADS-B
Fri 13:45:51 19.7020 86.2010 135° Southeast 459 528 41,000  Level FlightAware ADS-B
Fri 13:46:01 19.6870 86.2180 133° Southeast 460 529 41,000  Level FlightAware ADS-B
Fri 13:46:50 19.6270 86.2870 133° Southeast 460 529 41,000  Level FlightAware ADS-B
Fri 13:47:36 19.5700 86.3520 133° Southeast 460 529 41,000  Level FlightAware ADS-B
Fri 13:48:14 19.5230 86.4050 133° Southeast 460 529 41,000  Level FlightAware ADS-B
Fri 13:48:48 19.4810 86.4530 133° Southeast 460 529 41,000  Level FlightAware ADS-B
Fri 13:49:36 19.4220 86.5200 133° Southeast 460 529 41,000  Level FlightAware ADS-B
Fri 13:50:25 19.3610 86.5890 133° Southeast 460 529 41,000  Level FlightAware ADS-B
Fri 13:51:01 19.3170 86.6390 133° Southeast 460 529 41,000  Level FlightAware ADS-B
Fri 13:51:37 19.2730 86.6900 132° Southeast 460 529 41,000  Level FlightAware ADS-B
Fri 13:52:14 19.2270 86.7420 133° Southeast 460 529 41,000  Level FlightAware ADS-B
Fri 13:52:50 19.1830 86.7920 133° Southeast 460 529 41,000  Level FlightAware ADS-B
Fri 13:54:00 19.0960 86.8900 133° Southeast 460 529 41,000  Level FlightAware ADS-B
Fri 13:54:37 19.0510 86.9420 132° Southeast 460 529 41,000  Level FlightAware ADS-B
Fri 13:55:15 19.0040 86.9950 133° Southeast 460 529 41,000  Level FlightAware ADS-B
Fri 13:55:51 18.9590 87.0460 133° Southeast 460 529 41,000  Level FlightAware ADS-B
Fri 13:58:00 18.7658 87.2521 135° Southeast  Level Estimated
Fri 13:59:00 18.6758 87.3478 135° Southeast  Level Estimated
Fri 14:00:00 18.5858 87.4434 135° Southeast  Level Estimated
Fri 14:01:00 18.4957 87.5389 135° Southeast  Level Estimated
Fri 14:02:00 18.4056 87.6342 135° Southeast  Level Estimated
Fri 14:03:00 18.3155 87.7295 135° Southeast  Level Estimated
Fri 14:04:00 18.2253 87.8247 135° Southeast  Level Estimated
Fri 14:05:00 18.1350 87.9198 135° Southeast  Level Estimated
Fri 14:06:00 18.0447 88.0148 135° Southeast  Level Estimated
Fri 14:07:00 17.9544 88.1097 135° Southeast  Level Estimated
Fri 14:08:00 17.8640 88.2045 135° Southeast  Level Estimated
Fri 14:09:00 17.7736 88.2992 135° Southeast  Level Estimated
Fri 14:10:00 17.6831 88.3938 135° Southeast  Level Estimated
Fri 14:11:00 17.5926 88.4883 135° Southeast  Level Estimated
Fri 14:12:00 17.5020 88.5827 135° Southeast  Level Estimated
Fri 14:13:00 17.4114 88.6771 135° Southeast  Level Estimated
Fri 14:14:00 17.3208 88.7713 135° Southeast  Level Estimated
Fri 14:15:00 17.2301 88.8654 135° Southeast  Level Estimated
Fri 14:16:00 17.1393 88.9595 135° Southeast  Level Estimated
Fri 14:17:00 17.0486 89.0534 135° Southeast  Level Estimated
Fri 14:18:00 16.9577 89.1473 135° Southeast  Level Estimated
Fri 14:19:00 16.8669 89.2411 135° Southeast  Level Estimated
Fri 14:20:00 16.7759 89.3347 135° Southeast  Level Estimated
Fri 14:21:00 16.6850 89.4283 135° Southeast  Level Estimated
Fri 14:22:00 16.5940 89.5218 135° Southeast  Level Estimated
Fri 14:23:00 16.5030 89.6152 135° Southeast  Level Estimated
Fri 14:24:00 16.4119 89.7086 135° Southeast  Level Estimated
Fri 14:25:00 16.3207 89.8018 136° Southeast  Level Estimated
Fri 14:26:00 16.2296 89.8950 136° Southeast  Level Estimated
Fri 14:27:00 16.1384 89.9880 136° Southeast  Level Estimated
Fri 14:28:00 16.0471 90.0810 136° Southeast  Level Estimated
Fri 14:29:00 15.9559 90.1739 136° Southeast  Level Estimated
Fri 14:30:00 15.8645 90.2667 136° Southeast  Level Estimated
Fri 14:31:00 15.7732 90.3594 136° Southeast  Level Estimated
Fri 14:32:00 15.6818 90.4521 136° Southeast  Level Estimated
Fri 14:33:00 15.5904 90.5446 136° Southeast  Level Estimated
Fri 14:34:00 15.4989 90.6371 136° Southeast  Level Estimated
Fri 14:35:00 15.4073 90.7295 136° Southeast  Level Estimated
Fri 14:36:00 15.3158 90.8218 136° Southeast  Level Estimated
Fri 14:37:00 15.2242 90.9140 136° Southeast  Level Estimated
Fri 14:38:00 15.1326 91.0062 136° Southeast  Level Estimated
Fri 14:39:00 15.0409 91.0983 136° Southeast  Level Estimated
Fri 14:40:00 14.9492 91.1902 136° Southeast  Level Estimated
Fri 14:41:00 14.8574 91.2822 136° Southeast  Level Estimated
Fri 14:42:00 14.7657 91.3740 136° Southeast  Level Estimated
Fri 14:43:00 14.6739 91.4658 136° Southeast  Level Estimated
Fri 14:44:00 14.5820 91.5574 136° Southeast  Level Estimated
Fri 14:45:00 14.4901 91.6490 136° Southeast  Level Estimated
Fri 14:46:00 14.3982 91.7406 136° Southeast  Level Estimated
Fri 14:47:00 14.3062 91.8320 136° Southeast  Level Estimated
Fri 14:48:00 14.2142 91.9234 136° Southeast  Level Estimated
Fri 14:49:00 14.1222 92.0147 136° Southeast  Level Estimated
Fri 14:50:00 14.0302 92.1059 136° Southeast  Level Estimated
Fri 14:51:00 13.9381 92.1971 136° Southeast  Level Estimated
Fri 14:52:00 13.8459 92.2882 136° Southeast  Level Estimated
Fri 14:53:00 13.7538 92.3792 136° Southeast  Level Estimated
Fri 14:54:00 13.6616 92.4702 136° Southeast  Level Estimated
Fri 14:55:00 13.5693 92.5610 136° Southeast  Level Estimated
Fri 14:56:00 13.4771 92.6518 136° Southeast  Level Estimated
Fri 14:57:00 13.3848 92.7426 136° Southeast  Level Estimated
Fri 14:58:00 13.2924 92.8332 136° Southeast  Level Estimated
Fri 14:59:00 13.2001 92.9238 136° Southeast  Level Estimated
Fri 15:00:00 13.1077 93.0143 136° Southeast  Level Estimated
Fri 15:01:00 13.0153 93.1048 136° Southeast  Level Estimated
Fri 15:02:00 12.9228 93.1952 136° Southeast  Level Estimated
Fri 15:03:00 12.8303 93.2855 136° Southeast  Level Estimated
Fri 15:04:00 12.7378 93.3757 136° Southeast  Level Estimated
Fri 15:05:00 12.6453 93.4659 136° Southeast  Level Estimated
Fri 15:06:00 12.5527 93.5560 136° Southeast  Level Estimated
Fri 15:07:00 12.4601 93.6461 136° Southeast  Level Estimated
Fri 15:08:00 12.3674 93.7361 136° Southeast  Level Estimated
Fri 15:09:00 12.2748 93.8260 137° Southeast  Level Estimated
Fri 15:10:00 12.1821 93.9159 137° Southeast  Level Estimated
Fri 15:11:00 12.0893 94.0057 137° Southeast  Level Estimated
Fri 15:12:00 11.9966 94.0954 137° Southeast  Level Estimated
Fri 15:13:00 11.9038 94.1851 137° Southeast  Level Estimated
Fri 15:14:00 11.8110 94.2747 137° Southeast  Level Estimated
Fri 15:15:00 11.7182 94.3643 137° Southeast  Level Estimated
Fri 15:16:00 11.6253 94.4538 137° Southeast  Level Estimated
Fri 15:17:00 11.5324 94.5432 137° Southeast  Level Estimated
Fri 15:18:00 11.4395 94.6326 137° Southeast  Level Estimated
Fri 15:19:00 11.3465 94.7219 137° Southeast  Level Estimated
Fri 15:20:00 11.2535 94.8112 137° Southeast  Level Estimated
Fri 15:21:00 11.1605 94.9004 137° Southeast  Level Estimated
Fri 15:22:00 11.0675 94.9895 137° Southeast  Level Estimated
Fri 15:23:00 10.9745 95.0786 137° Southeast  Level Estimated
Fri 15:24:00 10.8814 95.1677 137° Southeast  Level Estimated
Fri 15:25:00 10.7883 95.2566 137° Southeast  Level Estimated
Fri 15:26:00 10.6951 95.3456 137° Southeast  Level Estimated
Fri 15:27:00 10.6020 95.4344 137° Southeast  Level Estimated
Fri 15:28:00 10.5088 95.5232 137° Southeast  Level Estimated
Fri 15:29:00 10.4156 95.6120 137° Southeast  Level Estimated
Fri 15:30:00 10.3224 95.7007 137° Southeast  Level Estimated
Fri 15:31:00 10.2291 95.7894 137° Southeast  Level Estimated
Fri 15:32:00 10.1358 95.8780 137° Southeast  Level Estimated
Fri 15:33:00 10.0425 95.9665 137° Southeast  Level Estimated
Fri 15:34:00 9.9492 96.0550 137° Southeast  Level Estimated
Fri 15:35:00 9.8558 96.1435 137° Southeast  Level Estimated
Fri 15:36:00 9.7625 96.2319 137° Southeast  Level Estimated
Fri 15:37:00 9.6691 96.3202 137° Southeast  Level Estimated
Fri 15:38:00 9.5757 96.4085 137° Southeast  Level Estimated
Fri 15:38:56 9.8030 96.7350 137° Southeast 445 512 41,000  Level FlightAware ADS-B
Fri 15:39:00 9.4822 96.4968 137° Southeast  Level Estimated
Fri 15:39:25 9.7660 96.7700 137° Southeast 445 512 41,000  Level FlightAware ADS-B
Fri 15:40:00 9.3888 96.5850 137° Southeast  Level Estimated
Fri 15:40:15 9.7020 96.8310 137° Southeast 445 512 41,000  Level FlightAware ADS-B
Fri 15:40:50 9.6310 96.8960 138° Southeast 439 505 41,000  Level FlightAware ADS-B
Fri 15:41:48 9.5450 96.9760 137° Southeast 439 505 41,000  Level FlightAware ADS-B
Fri 15:42:21 9.5030 97.0160 137° Southeast 438 504 41,000  Level FlightAware ADS-B
Fri 15:42:48 9.4560 97.0600 137° Southeast 438 504 41,000  Level FlightAware ADS-B
Fri 15:43:24 9.4010 97.1110 138° Southeast 440 506 41,000  Level FlightAware ADS-B
Fri 15:44:02 9.3440 97.1650 137° Southeast 440 506 41,000  Level FlightAware ADS-B
Fri 15:44:38 9.2910 97.2140 138° Southeast 442 509 41,000  Level FlightAware ADS-B
Fri 15:45:10 9.2430 97.2590 137° Southeast 442 509 41,000  Level FlightAware ADS-B
Fri 15:45:49 9.1840 97.3140 137° Southeast 442 509 41,000  Level FlightAware ADS-B
Fri 15:46:25 9.1300 97.3640 138° Southeast 445 512 41,000  Level FlightAware ADS-B
Fri 15:47:24 9.0390 97.4490 137° Southeast 447 514 41,000  Level FlightAware ADS-B
Fri 15:47:54 8.9930 97.4920 137° Southeast 447 514 41,000  Level FlightAware ADS-B
Fri 15:48:30 8.9390 97.5420 138° Southeast 446 513 41,000  Level FlightAware ADS-B
Fri 15:49:06 8.8840 97.5930 138° Southeast 445 512 41,000  Level FlightAware ADS-B
Fri 15:50:10 8.7900 97.6810 137° Southeast 433 498 41,000  Level FlightAware ADS-B
Fri 15:50:34 8.7560 97.7130 137° Southeast 431 496 41,000  Level FlightAware ADS-B
Fri 15:51:06 8.7070 97.7580 138° Southeast 434 499 41,000  Level FlightAware ADS-B
Fri 15:52:06 8.6160 97.8420 138° Southeast 439 505 41,000  Level FlightAware ADS-B
Fri 15:52:36 8.5710 97.8840 137° Southeast 440 506 41,000  Level FlightAware ADS-B
Fri 15:53:07 8.5260 97.9260 137° Southeast 443 510 41,000  Level FlightAware ADS-B
Fri 15:53:42 8.4720 97.9760 138° Southeast 442 509 41,000  Level FlightAware ADS-B
Fri 15:54:12 8.4280 98.0170 137° Southeast 440 506 41,000  Level FlightAware ADS-B
Fri 15:54:48 8.3730 98.0680 137° Southeast 436 502 41,000  Level FlightAware ADS-B
Fri 15:55:24 8.3210 98.1160 138° Southeast 440 506 41,000  Level FlightAware ADS-B
Fri 15:56:30 8.2190 98.2110 137° Southeast 450 518 41,000  Level FlightAware ADS-B
Fri 15:57:06 8.1660 98.2590 138° Southeast 446 513 41,000  Level FlightAware ADS-B
Fri 15:57:38 8.1170 98.3040 138° Southeast 436 502 41,000  Level FlightAware ADS-B
Fri 15:58:03 8.0800 98.3350 140° Southeast 432 497 41,000  Level FlightAware ADS-B
Fri 15:58:41 8.0300 98.3760 141° Southeast 431 496 41,000  Level FlightAware ADS-B
Fri 15:59:15 7.9680 98.4270 141° Southeast 432 497 41,000  Level FlightAware ADS-B
Fri 15:59:58 7.9020 98.4820 140° Southeast 432 497 41,000  Level FlightAware ADS-B
Fri 16:00:26 7.8580 98.5180 141° Southeast 432 497 41,000  Level FlightAware ADS-B
Fri 16:01:04 7.7970 98.5680 141° Southeast 433 498 41,000  Level FlightAware ADS-B
Fri 16:02:12 7.6910 98.6550 141° Southeast 434 499 41,000  Level FlightAware ADS-B
Fri 16:03:10 7.6010 98.7290 141° Southeast 436 502 41,000  Level FlightAware ADS-B
Fri 16:03:40 7.5540 98.7680 141° Southeast 435 501 41,000  Level FlightAware ADS-B
Fri 16:04:10 7.5060 98.8070 141° Southeast 437 503 41,000  Level FlightAware ADS-B
Fri 16:04:49 7.4450 98.8570 141° Southeast 443 510 41,000  Level FlightAware ADS-B
Fri 16:05:33 7.3760 98.9140 141° Southeast 448 516 41,000  Level FlightAware ADS-B
Fri 16:06:29 7.2830 98.9900 141° Southeast 446 513 41,000  Level FlightAware ADS-B
Fri 16:07:37 7.1750 99.0790 141° Southeast 446 513 41,000  Level FlightAware ADS-B
Fri 16:08:07 7.1270 99.1180 141° Southeast 451 519 41,000  Level FlightAware ADS-B
Fri 16:08:44 7.0680 99.1670 141° Southeast 454 522 41,000  Level FlightAware ADS-B
Fri 16:09:25 6.9990 99.2220 142° Southeast 455 524 41,000  Level FlightAware ADS-B
Fri 16:10:28 6.8970 99.3060 141° Southeast 453 521 41,000  Level FlightAware ADS-B
Fri 16:11:00 6.8440 99.3490 141° Southeast 453 521 41,000  Level FlightAware ADS-B
Fri 16:11:56 6.7540 99.4230 141° Southeast 452 520 41,000  Level FlightAware ADS-B
Fri 16:12:46 6.6720 99.4900 141° Southeast 450 518 41,000  Level FlightAware ADS-B
Fri 16:13:31 6.5990 99.5490 141° Southeast 451 519 41,000  Level FlightAware ADS-B
Fri 16:14:06 6.5450 99.5940 140° Southeast 443 510 41,000  Level FlightAware ADS-B
Fri 16:14:41 6.4870 99.6410 141° Southeast 441 507 41,000  Level FlightAware ADS-B
Fri 16:15:46 6.3840 99.7240 141° Southeast 443 510 41,000  Level FlightAware ADS-B
Fri 16:16:41 6.2890 99.7860 147° Southeast 450 518 41,000  Level FlightAware ADS-B
Fri 16:17:41 6.1810 99.8460 151° Southeast 454 522 41,000  Level FlightAware ADS-B
Fri 16:18:26 6.0950 99.8940 151° Southeast 455 524 41,000  Level FlightAware ADS-B
Fri 16:19:26 5.9840 99.9570 151° Southeast 451 519 41,000  Level FlightAware ADS-B
Fri 16:20:21 5.8850 100.0120 151° Southeast 450 518 41,000  Level FlightAware ADS-B
Fri 16:21:21 5.7790 100.0720 151° Southeast 454 522 41,000  Level FlightAware ADS-B
Fri 16:21:51 5.7190 100.1060 151° Southeast 454 522 41,000  Level FlightAware ADS-B
Fri 16:22:16 5.6780 100.1280 152° Southeast 455 524 41,000  Level FlightAware ADS-B
Fri 16:23:16 5.5630 100.1930 151° Southeast 454 522 41,000  Level FlightAware ADS-B
Fri 16:23:56 5.4910 100.2330 151° Southeast 454 522 41,000  Level FlightAware ADS-B
Fri 16:24:31 5.4260 100.2700 150° Southeast 453 521 41,000  Level FlightAware ADS-B
Fri 16:25:06 5.3610 100.3060 151° Southeast 453 521 41,000  Level FlightAware ADS-B
Fri 16:26:01 5.2640 100.3610 151° Southeast 451 519 41,000  Level FlightAware ADS-B
Fri 16:26:46 5.1790 100.4080 151° Southeast 450 518 41,000  Level FlightAware ADS-B
Fri 16:27:11 5.1320 100.4340 151° Southeast 451 519 41,000  Level FlightAware ADS-B
Fri 16:28:06 5.0320 100.4900 151° Southeast 454 522 41,000  Level FlightAware ADS-B
Fri 16:28:31 4.9870 100.5160 150° Southeast 455 524 41,000  Level FlightAware ADS-B
Fri 16:29:06 4.9210 100.5520 151° Southeast 456 525 41,000  Level FlightAware ADS-B
Fri 16:30:11 4.8040 100.6180 151° Southeast 454 522 41,000  Level FlightAware ADS-B
Fri 16:31:07 4.6877 100.6828 151° Southeast 458 527 41,000  Level FlightAware ADS-B
Fri 16:31:42 4.6241 100.7183 151° Southeast 458 527 41,000  Level FlightAware ADS-B
Fri 16:32:12 4.5668 100.7504 151° Southeast 460 529 41,000  Level FlightAware ADS-B
Fri 16:33:46 4.4020 100.8420 135° Southeast 460 529 41,000  Level FlightAware ADS-B
Fri 16:34:00 4.4051 100.9142 135° Southeast  Level Estimated
Fri 16:34:46 4.2900 100.9050 151° Southeast 459 528 41,000  Level FlightAware ADS-B
Fri 16:35:51 4.1690 100.9730 151° Southeast 459 528 41,000  Level FlightAware ADS-B
Fri 16:36:41 4.0770 101.0240 151° Southeast 459 528 41,000  Level FlightAware ADS-B
Fri 16:37:11 4.0200 101.0550 152° Southeast 459 528 41,000  Level FlightAware ADS-B
Fri 16:37:49 3.9448 101.1071 145° Southeast 459 528 41,000  Level FlightAware ADS-B
Fri 16:38:30 3.8724 101.1575 145° Southeast 457 526 41,000  Level FlightAware ADS-B
Fri 16:39:09 3.8036 101.2043 146° Southeast 458 527 41,000  Level FlightAware ADS-B
Fri 16:39:40 3.7500 101.2405 146° Southeast 459 528 41,000  Level FlightAware ADS-B
Fri 16:40:18 3.6823 101.2864 146° Southeast 461 531 41,000  Level FlightAware ADS-B
Fri 16:40:50 3.6263 101.3243 146° Southeast 463 533 41,000  Level FlightAware ADS-B
Fri 16:41:29 3.5567 101.3714 146° Southeast 462 532 41,000  Level FlightAware ADS-B
Fri 16:41:59 3.5034 101.4076 146° Southeast 459 528 41,000  Level FlightAware ADS-B
Fri 16:42:39 3.4394 101.4648 138° Southeast 458 527 41,000  Level FlightAware ADS-B
Fri 16:43:10 3.3917 101.5084 138° Southeast 460 529 41,000  Level FlightAware ADS-B
Fri 16:43:40 3.3438 101.5520 138° Southeast 460 529 41,000  Level FlightAware ADS-B
Fri 16:44:10 3.2962 101.5952 138° Southeast 460 529 41,000  Level FlightAware ADS-B
Fri 16:44:41 3.2481 101.6389 138° Southeast 461 531 41,000  Level FlightAware ADS-B
Fri 16:45:21 3.1855 101.6957 138° Southeast 462 532 41,000  Level FlightAware ADS-B
Fri 16:45:51 3.1376 101.7391 138° Southeast 463 533 41,000  Level FlightAware ADS-B
Fri 16:46:28 3.0780 101.7934 138° Southeast 465 535 41,000  Level FlightAware ADS-B
Fri 16:46:58 3.0300 101.8372 138° Southeast 467 537 41,000  Level FlightAware ADS-B
Fri 16:47:40 2.9636 101.8973 138° Southeast 466 536 41,000  Level FlightAware ADS-B
Fri 16:48:59 2.8383 102.0110 138° Southeast 460 529 41,000  Level FlightAware ADS-B
Fri 16:49:30 2.8000 102.0460 138° Southeast 460 529 41,000  Level FlightAware ADS-B
Fri 16:50:03 2.7500 102.0910 138° Southeast 460 529 41,000 -154 Level FlightAware ADS-B
Fri 16:50:48 2.6850 102.1500 138° Southeast 456 525 40,800 -667 Descending FlightAware ADS-B
Fri 16:51:42 2.5930 102.2330 138° Southeast 461 531 39,900 -458 Descending FlightAware ADS-B
Fri 16:52:46 2.5070 102.3110 138° Southeast 461 531 39,900  Level FlightAware ADS-B
Fri 16:53:46 2.4260 102.3840 138° Southeast 461 531 39,900  Level FlightAware ADS-B
Fri 16:54:47 2.3440 102.4580 138° Southeast 461 531 39,900  Level FlightAware ADS-B
Fri 16:54:59 2.3280 102.4730 137° Southeast 461 531 39,900  Level FlightAware ADS-B
Fri 16:55:59 2.2470 102.5450 138° Southeast 461 531 39,900  Level FlightAware ADS-B
Fri 16:56:47 2.1820 102.6040 138° Southeast 461 531 39,900  Level FlightAware ADS-B
Fri 16:57:48 2.1000 102.6780 138° Southeast 461 531 39,900  Level FlightAware ADS-B
Fri 16:58:12 2.0680 102.7070 138° Southeast 461 531 39,900  Level FlightAware ADS-B
Fri 16:59:13 1.9860 102.7810 138° Southeast 461 531 39,900 -7,581 Level FlightAware ADS-B
Fri 17:00:21 1.7720 102.9780 137° Southeast 424 488 23,600 -10,295 Descending FlightAware ADS-B
Fri 17:00:48 1.7390 103.0090 137° Southeast 424 488 23,600 -1,237 Level FlightAware ADS-B
Fri 17:01:58 1.6340 103.1020 138° Southeast 374 430 21,600 -1,370 Descending FlightAware ADS-B
Fri 17:02:55 1.5580 103.1570 144° Southeast 344 396 20,700 -1,235 Descending FlightAware ADS-B
Fri 17:03:40 1.4990 103.1960 147° Southeast 340 391 19,500 -1,677 Descending FlightAware ADS-B
Fri 17:04:28 1.4380 103.2370 146° Southeast 338 389 18,100 -1,636 Descending FlightAware ADS-B
Fri 17:05:19 1.3700 103.2810 147° Southeast 333 383 16,800 -1,443 Descending FlightAware ADS-B
Fri 17:05:47 1.3370 103.3030 146° Southeast 330 380 16,200 -1,345 Descending FlightAware ADS-B
Fri 17:06:17 1.2990 103.3280 147° Southeast 324 373 15,500 -1,600 Descending FlightAware ADS-B
Fri 17:06:47 1.2590 103.3550 146° Southeast 325 374 14,600 -1,625 Descending FlightAware ADS-B
Fri 17:07:53 1.1810 103.4100 145° Southeast 321 369 12,900 -1,533 Descending FlightAware ADS-B
Fri 17:08:17 1.1680 103.4460 110° East 317 365 12,300 -904 Descending FlightAware ADS-B
Fri 17:09:06 1.1470 103.5080 109° East 312 359 11,800 -1,213 Descending FlightAware ADS-B
Fri 17:09:51 1.1260 103.5700 109° East 312 359 10,400 -1,689 Descending FlightAware ADS-B
Fri 17:10:49 1.1000 103.6500 108° East 329 379 8,900 -1,299 Descending FlightAware ADS-B
Fri 17:11:28 1.0870 103.6890 108° East 293 337 8,300 -1,477 Descending FlightAware ADS-B
Fri 17:11:54 1.0730 103.7360 107° East 287 330 7,300 -2,361 Descending FlightAware ADS-B
Fri 17:12:29 1.0790 103.7820 83° East 284 327 5,900 -2,000 Descending FlightAware ADS-B
Fri 17:12:57 1.0850 103.8180 81° East 265 305 5,200 -1,355 Descending FlightAware ADS-B
Fri 17:13:31 1.1080 103.8510 55° Northeast 242 278 4,500 -915 Descending FlightAware ADS-B
Fri 17:13:56 1.1240 103.8710 51° Northeast 229 264 4,300 -581 Descending FlightAware ADS-B
Fri 17:14:02 1.1280 103.8770 56° Northeast 226 260 4,200 -625 Descending FlightAware ADS-B
Fri 17:14:44 1.1610 103.8980 32° Northeast 200 230 3,800 -600 Descending FlightAware ADS-B
Fri 17:15:02 1.1760 103.9040 22° Northeast 198 228 3,600 -882 Descending FlightAware ADS-B
Fri 17:15:52 1.2180 103.9220 23° Northeast 183 211 2,800 -973 Descending FlightAware ADS-B
Fri 17:16:16 1.2360 103.9300 24° Northeast 174 200 2,400 -913 Descending FlightAware ADS-B
Fri 17:16:38 1.2520 103.9370 24° Northeast 170 196 2,100 -698 Descending FlightAware ADS-B
Fri 17:16:59 1.2660 103.9430 23° Northeast 154 177 1,900 -778 Descending FlightAware ADS-B
Fri 17:17:32 1.2870 103.9510 21° North 140 161 1,400 -787 Descending FlightAware ADS-B
Fri 17:18:00 1.3040 103.9590 25° Northeast 143 165 1,100 -750 Descending FlightAware ADS-B
Fri 17:18:20 1.3170 103.9640 21° North 143 165 800 -682 Descending FlightAware ADS-B
Fri 17:18:44 1.3320 103.9700 22° Northeast 143 165 600 -600 Descending FlightAware ADS-B
Fri 17:19:10 1.3470 103.9770 25° Northeast 142 163 300 -692 Descending FlightAware ADS-B
Fri 17:19:37 1.3610 103.9830 23° Northeast 90 104 -667 Descending FlightAware ADS-B
Fri 17:20:05 1.3710 103.9860 17° North 90 104  Level FlightAware ADS-B

Login

Don't have an account? Register now (free) for customized features, flight alerts, and more!